Observation data for McCamey on 02/20/2019      Previous  Date  Next       Current Mesonet Observations  Soil Data  Daily Summary Page  Observations in Plain Language
KMC4 200600Z 13003KT M02/M05 A2998 RMK A01 T10171049  RH  078%=      5-min Rain = 0
KMC4 200601Z 12003KT M02/M05 A2998 RMK A01 T10181051  RH  079%=      5-min Rain = 0
KMC4 200602Z 12003KT M02/M05 A2998 RMK A01 T10201051  RH  079%=      5-min Rain = 0
KMC4 200603Z 12003KT M02/M05 A2998 RMK A01 T10201050  RH  080%=      5-min Rain = 0
KMC4 200604Z 11002KT M02/M05 A2998 RMK A01 T10211050  RH  081%=      5-min Rain = 0
KMC4 200605Z 10002KT M02/M05 A2998 RMK A01 T10221050  RH  081%=      5-min Rain = 0
KMC4 200606Z 09002KT M02/M05 A2998 RMK A01 T10221051  RH  081%=      5-min Rain = 0
KMC4 200607Z 07002KT M02/M05 A2998 RMK A01 T10231052  RH  081%=      5-min Rain = 0
KMC4 200608Z 08002KT M02/M05 A2998 RMK A01 T10241052  RH  081%=      5-min Rain = 0
KMC4 200609Z 08002KT M02/M05 A2998 RMK A01 T10241051  RH  082%=      5-min Rain = 0
KMC4 200610Z 09002KT M02/M05 A2998 RMK A01 T10241050  RH  082%=      5-min Rain = 0
KMC4 200611Z 10003KT M02/M05 A2998 RMK A01 T10231048  RH  083%=      5-min Rain = 0
KMC4 200612Z 09003KT M02/M05 A2998 RMK A01 T10221048  RH  082%=      5-min Rain = 0
KMC4 200613Z 09003KT M02/M05 A2998 RMK A01 T10211048  RH  082%=      5-min Rain = 0
KMC4 200614Z 09003KT M02/M05 A2998 RMK A01 T10211049  RH  081%=      5-min Rain = 0
KMC4 200615Z 09003KT M02/M05 A2998 RMK A01 T10211049  RH  081%=      5-min Rain = 0
KMC4 200616Z 07003KT M02/M05 A2998 RMK A01 T10211049  RH  081%=      5-min Rain = 0
KMC4 200617Z 04002KT M02/M05 A2998 RMK A01 T10211048  RH  082%=      5-min Rain = 0
KMC4 200618Z 01003KT M02/M05 A2998 RMK A01 T10211048  RH  082%=      5-min Rain = 0
KMC4 200619Z 01003KT M02/M05 A2998 RMK A01 T10211048  RH  082%=      5-min Rain = 0
KMC4 200620Z 02004KT M02/M05 A2998 RMK A01 T10201047  RH  082%=      5-min Rain = 0
KMC4 200621Z 04004KT M02/M05 A2998 RMK A01 T10201047  RH  082%=      5-min Rain = 0
KMC4 200622Z 05004KT M02/M05 A2998 RMK A01 T10201047  RH  082%=      5-min Rain = 0
KMC4 200623Z 04004KT M02/M05 A2998 RMK A01 T10201047  RH  082%=      5-min Rain = 0
KMC4 200624Z 04003KT M02/M05 A2998 RMK A01 T10191047  RH  082%=      5-min Rain = 0
KMC4 200625Z 05003KT M02/M05 A2998 RMK A01 T10191047  RH  081%=      5-min Rain = 0
KMC4 200626Z 06003KT M02/M05 A2998 RMK A01 T10191047  RH  081%=      5-min Rain = 0
KMC4 200627Z 06003KT M02/M05 A2998 RMK A01 T10191047  RH  081%=      5-min Rain = 0
KMC4 200628Z 06003KT M02/M05 A2998 RMK A01 T10191047  RH  081%=      5-min Rain = 0
KMC4 200629Z 07003KT M02/M05 A2997 RMK A01 T10191047  RH  081%=      5-min Rain = 0
KMC4 200630Z 08003KT M02/M05 A2997 RMK A01 T10201048  RH  081%=      5-min Rain = 0
KMC4 200631Z 07003KT M02/M05 A2997 RMK A01 T10211048  RH  081%=      5-min Rain = 0
KMC4 200632Z 05003KT M02/M05 A2997 RMK A01 T10211048  RH  082%=      5-min Rain = 0
KMC4 200633Z 03003KT M02/M05 A2997 RMK A01 T10211048  RH  082%=      5-min Rain = 0
KMC4 200634Z 02003KT M02/M05 A2997 RMK A01 T10211047  RH  082%=      5-min Rain = 0
KMC4 200635Z 03004KT M02/M05 A2997 RMK A01 T10211048  RH  082%=      5-min Rain = 0
KMC4 200636Z 04003KT M02/M05 A2997 RMK A01 T10201047  RH  082%=      5-min Rain = 0
KMC4 200637Z 04003KT M02/M05 A2997 RMK A01 T10201047  RH  082%=      5-min Rain = 0
KMC4 200638Z 05003KT M02/M05 A2997 RMK A01 T10211048  RH  082%=      5-min Rain = 0
KMC4 200639Z 06003KT M02/M05 A2997 RMK A01 T10201047  RH  082%=      5-min Rain = 0
KMC4 200640Z 07003KT M02/M05 A2997 RMK A01 T10201048  RH  081%=      5-min Rain = 0
KMC4 200641Z 07002KT M02/M05 A2997 RMK A01 T10201048  RH  081%=      5-min Rain = 0
KMC4 200642Z 07002KT M02/M05 A2997 RMK A01 T10201048  RH  081%=      5-min Rain = 0
KMC4 200643Z 06002KT M02/M05 A2997 RMK A01 T10201048  RH  081%=      5-min Rain = 0
KMC4 200644Z 04002KT M02/M05 A2997 RMK A01 T10201048  RH  082%=      5-min Rain = 0
KMC4 200645Z 03003KT M02/M05 A2997 RMK A01 T10201048  RH  082%=      5-min Rain = 0
KMC4 200646Z 03004KT M02/M05 A2997 RMK A01 T10201048  RH  081%=      5-min Rain = 0
KMC4 200647Z 04004KT M02/M05 A2997 RMK A01 T10201048  RH  081%=      5-min Rain = 0
KMC4 200648Z 04004KT M02/M05 A2996 RMK A01 T10201048  RH  081%=      5-min Rain = 0
KMC4 200649Z 04003KT M02/M05 A2996 RMK A01 T10201048  RH  081%=      5-min Rain = 0
KMC4 200650Z 05003KT M02/M05 A2996 RMK A01 T10201048  RH  081%=      5-min Rain = 0
KMC4 200651Z 05003KT M02/M05 A2996 RMK A01 T10201048  RH  081%=      5-min Rain = 0
KMC4 200652Z 04003KT M02/M05 A2996 RMK A01 T10191047  RH  081%=      5-min Rain = 0
KMC4 200653Z 04003KT M02/M05 A2996 RMK A01 T10191047  RH  081%=      5-min Rain = 0
KMC4 200654Z 04003KT M02/M05 A2997 RMK A01 T10191048  RH  081%=      5-min Rain = 0
KMC4 200655Z 04003KT M02/M05 A2997 RMK A01 T10191048  RH  081%=      5-min Rain = 0
KMC4 200656Z 04003KT M02/M05 A2997 RMK A01 T10191048  RH  081%=      5-min Rain = 0
KMC4 200657Z 05003KT M02/M05 A2997 RMK A01 T10191048  RH  081%=      5-min Rain = 0
KMC4 200658Z 06003KT M02/M05 A2997 RMK A01 T10201048  RH  081%=      5-min Rain = 0
KMC4 200659Z 08003KT M02/M05 A2997 RMK A01 T10201048  RH  081%=      5-min Rain = 0
KMC4 200700Z 08003KT M02/M05 A2997 RMK A01 T10201048  RH  081%=      5-min Rain = 0
KMC4 200701Z 10002KT M02/M05 A2997 RMK A01 T10201047  RH  082%=      5-min Rain = 0
KMC4 200702Z 07002KT M02/M05 A2997 RMK A01 T10191047  RH  082%=      5-min Rain = 0
KMC4 200703Z 06002KT M02/M05 A2998 RMK A01 T10191047  RH  081%=      5-min Rain = 0
KMC4 200704Z 08003KT M02/M05 A2998 RMK A01 T10191047  RH  081%=      5-min Rain = 0
KMC4 200705Z 09004KT M02/M05 A2997 RMK A01 T10181046  RH  081%=      5-min Rain = 0
KMC4 200706Z 10004KT M02/M05 A2997 RMK A01 T10191047  RH  081%=      5-min Rain = 0
KMC4 200707Z 11004KT M02/M05 A2997 RMK A01 T10181047  RH  081%=      5-min Rain = 0
KMC4 200708Z 11004KT M02/M05 A2997 RMK A01 T10191048  RH  081%=      5-min Rain = 0
KMC4 200709Z 11003KT M02/M05 A2997 RMK A01 T10201048  RH  081%=      5-min Rain = 0
KMC4 200710Z 10002KT M02/M05 A2997 RMK A01 T10211049  RH  081%=      5-min Rain = 0
KMC4 200711Z 08001KT M02/M05 A2997 RMK A01 T10211049  RH  081%=      5-min Rain = 0
KMC4 200712Z 08001KT M02/M05 A2997 RMK A01 T10211048  RH  082%=      5-min Rain = 0
KMC4 200713Z 08002KT M02/M05 A2997 RMK A01 T10211047  RH  082%=      5-min Rain = 0
KMC4 200714Z 07002KT M02/M05 A2997 RMK A01 T10191046  RH  082%=      5-min Rain = 0
KMC4 200715Z 06002KT M02/M05 A2997 RMK A01 T10191046  RH  082%=      5-min Rain = 0
KMC4 200716Z 05002KT M02/M05 A2997 RMK A01 T10181046  RH  081%=      5-min Rain = 0
KMC4 200717Z 05002KT M02/M05 A2997 RMK A01 T10181046  RH  081%=      5-min Rain = 0
KMC4 200718Z 06002KT M02/M05 A2998 RMK A01 T10181047  RH  080%=      5-min Rain = 0
KMC4 200719Z 07002KT M02/M05 A2998 RMK A01 T10181047  RH  080%=      5-min Rain = 0
KMC4 200720Z 08002KT M02/M05 A2998 RMK A01 T10181047  RH  080%=      5-min Rain = 0
KMC4 200721Z 09003KT M02/M05 A2998 RMK A01 T10171046  RH  080%=      5-min Rain = 0
KMC4 200722Z 10004KT M02/M05 A2998 RMK A01 T10171047  RH  080%=      5-min Rain = 0
KMC4 200723Z 11004KT M02/M05 A2997 RMK A01 T10181048  RH  080%=      5-min Rain = 0
KMC4 200724Z 10004KT M02/M05 A2998 RMK A01 T10181048  RH  080%=      5-min Rain = 0
KMC4 200725Z 11003KT M02/M05 A2998 RMK A01 T10181047  RH  080%=      5-min Rain = 0
KMC4 200726Z 10004KT M02/M05 A2998 RMK A01 T10181047  RH  081%=      5-min Rain = 0
KMC4 200727Z 08004KT M02/M05 A2998 RMK A01 T10171047  RH  080%=      5-min Rain = 0
KMC4 200728Z 05004KT M02/M05 A2998 RMK A01 T10171047  RH  080%=      5-min Rain = 0
KMC4 200729Z 03005KT M02/M05 A2998 RMK A01 T10171048  RH  080%=      5-min Rain = 0
KMC4 200730Z 03006KT M02/M05 A2998 RMK A01 T10181048  RH  080%=      5-min Rain = 0
KMC4 200731Z 03005KT M02/M05 A2998 RMK A01 T10191049  RH  080%=      5-min Rain = 0
KMC4 200732Z 06005KT M02/M05 A2998 RMK A01 T10191047  RH  081%=      5-min Rain = 0
KMC4 200733Z 08005KT M02/M05 A2998 RMK A01 T10191047  RH  081%=      5-min Rain = 0
KMC4 200734Z 08005KT M02/M05 A2998 RMK A01 T10181047  RH  081%=      5-min Rain = 0
KMC4 200735Z 08005KT M02/M05 A2998 RMK A01 T10181047  RH  081%=      5-min Rain = 0
KMC4 200736Z 06005KT M02/M05 A2998 RMK A01 T10181047  RH  080%=      5-min Rain = 0
KMC4 200737Z 03005KT M02/M05 A2998 RMK A01 T10181047  RH  081%=      5-min Rain = 0
KMC4 200738Z 03005KT M02/M05 A2998 RMK A01 T10181047  RH  081%=      5-min Rain = 0
KMC4 200739Z 03005KT M02/M05 A2998 RMK A01 T10181047  RH  081%=      5-min Rain = 0
KMC4 200740Z 05006KT M02/M05 A2998 RMK A01 T10181047  RH  081%=      5-min Rain = 0
KMC4 200741Z 06006KT M02/M05 A2997 RMK A01 T10181046  RH  081%=      5-min Rain = 0
KMC4 200742Z 05005KT M02/M05 A2998 RMK A01 T10181046  RH  081%=      5-min Rain = 0
KMC4 200743Z 04005KT M02/M05 A2998 RMK A01 T10171046  RH  081%=      5-min Rain = 0
KMC4 200744Z 04004KT M02/M05 A2998 RMK A01 T10171046  RH  080%=      5-min Rain = 0
KMC4 200745Z 04004KT M02/M05 A2998 RMK A01 T10161046  RH  080%=      5-min Rain = 0
KMC4 200746Z 05003KT M02/M05 A2998 RMK A01 T10161046  RH  080%=      5-min Rain = 0
KMC4 200747Z 06003KT M02/M05 A2998 RMK A01 T10161046  RH  080%=      5-min Rain = 0
KMC4 200748Z 06003KT M02/M05 A2998 RMK A01 T10161047  RH  079%=      5-min Rain = 0
KMC4 200749Z 05003KT M02/M05 A2998 RMK A01 T10161047  RH  080%=      5-min Rain = 0
KMC4 200750Z 04004KT M02/M05 A2998 RMK A01 T10161047  RH  080%=      5-min Rain = 0
KMC4 200751Z 05004KT M02/M05 A2998 RMK A01 T10171047  RH  080%=      5-min Rain = 0
KMC4 200752Z 04003KT M02/M05 A2998 RMK A01 T10171047  RH  080%=      5-min Rain = 0
KMC4 200753Z 06003KT M02/M05 A2998 RMK A01 T10171047  RH  080%=      5-min Rain = 0
KMC4 200754Z 06003KT M02/M05 A2998 RMK A01 T10171047  RH  080%=      5-min Rain = 0
KMC4 200755Z 06003KT M02/M05 A2998 RMK A01 T10171047  RH  080%=      5-min Rain = 0
KMC4 200756Z 05003KT M02/M05 A2998 RMK A01 T10161047  RH  080%=      5-min Rain = 0
KMC4 200757Z 03003KT M02/M05 A2998 RMK A01 T10161047  RH  080%=      5-min Rain = 0
KMC4 200758Z 04003KT M02/M05 A2998 RMK A01 T10171048  RH  080%=      5-min Rain = 0
KMC4 200759Z 04003KT M02/M05 A2998 RMK A01 T10181048  RH  080%=      5-min Rain = 0
KMC4 200800Z 05003KT M02/M05 A2998 RMK A01 T10181048  RH  080%=      5-min Rain = 0
KMC4 200801Z 04003KT M02/M05 A2998 RMK A01 T10181048  RH  080%=      5-min Rain = 0
KMC4 200802Z 04003KT M02/M05 A2998 RMK A01 T10181048  RH  080%=      5-min Rain = 0
KMC4 200803Z 04003KT M02/M05 A2998 RMK A01 T10181048  RH  080%=      5-min Rain = 0
KMC4 200804Z 05004KT M02/M05 A2998 RMK A01 T10191048  RH  080%=      5-min Rain = 0
KMC4 200805Z 05003KT M02/M05 A2998 RMK A01 T10191048  RH  080%=      5-min Rain = 0
KMC4 200806Z 05004KT M02/M05 A2998 RMK A01 T10181048  RH  080%=      5-min Rain = 0
KMC4 200807Z 05004KT M02/M05 A2998 RMK A01 T10191048  RH  080%=      5-min Rain = 0
KMC4 200808Z 05004KT M02/M05 A2998 RMK A01 T10181048  RH  080%=      5-min Rain = 0
KMC4 200809Z 05004KT M02/M05 A2998 RMK A01 T10181048  RH  080%=      5-min Rain = 0
KMC4 200810Z 06004KT M02/M05 A2998 RMK A01 T10181048  RH  080%=      5-min Rain = 0
KMC4 200811Z 07004KT M02/M05 A2998 RMK A01 T10181048  RH  080%=      5-min Rain = 0
KMC4 200812Z 07004KT M02/M05 A2998 RMK A01 T10181048  RH  080%=      5-min Rain = 0
KMC4 200813Z 07004KT M02/M05 A2998 RMK A01 T10181048  RH  080%=      5-min Rain = 0
KMC4 200814Z 07005KT M02/M05 A2998 RMK A01 T10181048  RH  080%=      5-min Rain = 0
KMC4 200815Z 07004KT M02/M05 A2998 RMK A01 T10171047  RH  080%=      5-min Rain = 0
KMC4 200816Z 07004KT M02/M05 A2998 RMK A01 T10161047  RH  079%=      5-min Rain = 0
KMC4 200817Z 07004KT M02/M05 A2998 RMK A01 T10161048  RH  079%=      5-min Rain = 0
KMC4 200818Z 07005KT M02/M05 A2997 RMK A01 T10161048  RH  079%=      5-min Rain = 0
KMC4 200819Z 08005KT M02/M05 A2997 RMK A01 T10161048  RH  079%=      5-min Rain = 0
KMC4 200820Z 07004KT M02/M05 A2997 RMK A01 T10161048  RH  078%=      5-min Rain = 0
KMC4 200821Z 08003KT M02/M05 A2998 RMK A01 T10151048  RH  078%=      5-min Rain = 0
KMC4 200822Z 09003KT M02/M05 A2998 RMK A01 T10151049  RH  078%=      5-min Rain = 0
KMC4 200823Z 09005KT M02/M05 A2997 RMK A01 T10161048  RH  078%=      5-min Rain = 0
KMC4 200824Z 09005KT M02/M05 A2997 RMK A01 T10161048  RH  078%=      5-min Rain = 0
KMC4 200825Z 10005KT M02/M05 A2997 RMK A01 T10151048  RH  078%=      5-min Rain = 0
KMC4 200826Z 10005KT M02/M05 A2997 RMK A01 T10151049  RH  078%=      5-min Rain = 0
KMC4 200827Z 11004KT M02/M05 A2997 RMK A01 T10151049  RH  078%=      5-min Rain = 0
KMC4 200828Z 11004KT M02/M05 A2997 RMK A01 T10151049  RH  078%=      5-min Rain = 0
KMC4 200829Z 10004KT M02/M05 A2997 RMK A01 T10151049  RH  078%=      5-min Rain = 0
KMC4 200830Z 10004KT M02/M05 A2997 RMK A01 T10161049  RH  078%=      5-min Rain = 0
KMC4 200831Z 10004KT M02/M05 A2997 RMK A01 T10151049  RH  078%=      5-min Rain = 0
KMC4 200832Z 12002KT M02/M05 A2998 RMK A01 T10151049  RH  078%=      5-min Rain = 0
KMC4 200833Z 10003KT M02/M05 A2998 RMK A01 T10161049  RH  078%=      5-min Rain = 0
KMC4 200834Z 07003KT M02/M05 A2997 RMK A01 T10161050  RH  078%=      5-min Rain = 0
KMC4 200835Z 08003KT M02/M05 A2997 RMK A01 T10161049  RH  078%=      5-min Rain = 0
KMC4 200836Z 10002KT M02/M05 A2997 RMK A01 T10161049  RH  078%=      5-min Rain = 0
KMC4 200837Z 07002KT M02/M05 A2997 RMK A01 T10161050  RH  078%=      5-min Rain = 0
KMC4 200838Z 06001KT M02/M05 A2998 RMK A01 T10161050  RH  078%=      5-min Rain = 0
KMC4 200839Z 06001KT M02/M05 A2998 RMK A01 T10161050  RH  078%=      5-min Rain = 0
KMC4 200840Z 04001KT M02/M05 A2997 RMK A01 T10171050  RH  078%=      5-min Rain = 0
KMC4 200841Z 07002KT M02/M05 A2997 RMK A01 T10171050  RH  078%=      5-min Rain = 0
KMC4 200842Z 09001KT M02/M05 A2998 RMK A01 T10161049  RH  078%=      5-min Rain = 0
KMC4 200843Z 06001KT M02/M05 A2998 RMK A01 T10151049  RH  078%=      5-min Rain = 0
KMC4 200844Z 06002KT M02/M05 A2997 RMK A01 T10151049  RH  078%=      5-min Rain = 0
KMC4 200845Z 03001KT M02/M05 A2998 RMK A01 T10151049  RH  078%=      5-min Rain = 0
KMC4 200846Z 02002KT M02/M05 A2998 RMK A01 T10161050  RH  077%=      5-min Rain = 0
KMC4 200847Z 03002KT M02/M05 A2997 RMK A01 T10171050  RH  078%=      5-min Rain = 0
KMC4 200848Z 02002KT M02/M05 A2997 RMK A01 T10171051  RH  078%=      5-min Rain = 0
KMC4 200849Z 02002KT M02/M05 A2998 RMK A01 T10181050  RH  078%=      5-min Rain = 0
KMC4 200850Z 02002KT M02/M05 A2998 RMK A01 T10181050  RH  079%=      5-min Rain = 0
KMC4 200851Z 02002KT M02/M05 A2998 RMK A01 T10171050  RH  079%=      5-min Rain = 0
KMC4 200852Z 02002KT M02/M05 A2998 RMK A01 T10181050  RH  078%=      5-min Rain = 0
KMC4 200853Z 03002KT M02/M05 A2997 RMK A01 T10181050  RH  078%=      5-min Rain = 0
KMC4 200854Z 04002KT M02/M05 A2997 RMK A01 T10181050  RH  078%=      5-min Rain = 0
KMC4 200855Z 04002KT M02/M05 A2997 RMK A01 T10181051  RH  078%=      5-min Rain = 0
KMC4 200856Z 03002KT M02/M05 A2998 RMK A01 T10191051  RH  079%=      5-min Rain = 0
KMC4 200857Z 04002KT M02/M05 A2998 RMK A01 T10191051  RH  079%=      5-min Rain = 0
KMC4 200858Z 04001KT M02/M05 A2998 RMK A01 T10201052  RH  079%=      5-min Rain = 0
KMC4 200859Z 04002KT M02/M05 A2998 RMK A01 T10201052  RH  079%=      5-min Rain = 0
KMC4 200900Z 04002KT M02/M05 A2998 RMK A01 T10211052  RH  079%=      5-min Rain = 0
KMC4 200901Z 05002KT M02/M05 A2998 RMK A01 T10211052  RH  079%=      5-min Rain = 0
KMC4 200902Z 05003KT M02/M05 A2998 RMK A01 T10211051  RH  080%=      5-min Rain = 0
KMC4 200903Z 05003KT M02/M05 A2998 RMK A01 T10211051  RH  080%=      5-min Rain = 0
KMC4 200904Z 04003KT M02/M05 A2998 RMK A01 T10201050  RH  080%=      5-min Rain = 0
KMC4 200905Z 03002KT M02/M05 A2998 RMK A01 T10191051  RH  079%=      5-min Rain = 0
KMC4 200906Z 03002KT M02/M05 A2998 RMK A01 T10201051  RH  079%=      5-min Rain = 0
KMC4 200907Z 04003KT M02/M05 A2998 RMK A01 T10201052  RH  079%=      5-min Rain = 0
KMC4 200908Z 04003KT M02/M05 A2998 RMK A01 T10201051  RH  079%=      5-min Rain = 0
KMC4 200909Z 02003KT M02/M05 A2998 RMK A01 T10201051  RH  079%=      5-min Rain = 0
KMC4 200910Z 02003KT M02/M05 A2998 RMK A01 T10191051  RH  079%=      5-min Rain = 0
KMC4 200911Z 01004KT M02/M05 A2997 RMK A01 T10191051  RH  079%=      5-min Rain = 0
KMC4 200912Z 02004KT M02/M05 A2997 RMK A01 T10191051  RH  079%=      5-min Rain = 0
KMC4 200913Z 02004KT M02/M05 A2997 RMK A01 T10181050  RH  079%=      5-min Rain = 0
KMC4 200914Z 02004KT M02/M05 A2997 RMK A01 T10191051  RH  079%=      5-min Rain = 0
KMC4 200915Z 01004KT M02/M05 A2997 RMK A01 T10191051  RH  079%=      5-min Rain = 0
KMC4 200916Z 01004KT M02/M05 A2997 RMK A01 T10191051  RH  079%=      5-min Rain = 0
KMC4 200917Z 02004KT M02/M05 A2997 RMK A01 T10191052  RH  078%=      5-min Rain = 0
KMC4 200918Z 02004KT M02/M05 A2997 RMK A01 T10191052  RH  078%=      5-min Rain = 0
KMC4 200919Z 02004KT M02/M05 A2997 RMK A01 T10191052  RH  078%=      5-min Rain = 0
KMC4 200920Z 02003KT M02/M05 A2997 RMK A01 T10201053  RH  078%=      5-min Rain = 0
KMC4 200921Z 02003KT M02/M05 A2997 RMK A01 T10201053  RH  078%=      5-min Rain = 0
KMC4 200922Z 03003KT M02/M05 A2997 RMK A01 T10211053  RH  078%=      5-min Rain = 0
KMC4 200923Z 03003KT M02/M05 A2997 RMK A01 T10211054  RH  078%=      5-min Rain = 0
KMC4 200924Z 02003KT M02/M05 A2997 RMK A01 T10211053  RH  079%=      5-min Rain = 0
KMC4 200925Z 02003KT M02/M05 A2997 RMK A01 T10211054  RH  079%=      5-min Rain = 0
KMC4 200926Z 02003KT M02/M05 A2997 RMK A01 T10211054  RH  079%=      5-min Rain = 0
KMC4 200927Z 02002KT M02/M05 A2997 RMK A01 T10221054  RH  079%=      5-min Rain = 0
KMC4 200928Z 02001KT M02/M06 A2997 RMK A01 T10231055  RH  079%=      5-min Rain = 0
KMC4 200929Z 03002KT M02/M06 A2997 RMK A01 T10231055  RH  079%=      5-min Rain = 0
KMC4 200930Z 03002KT M02/M05 A2997 RMK A01 T10231054  RH  079%=      5-min Rain = 0
KMC4 200931Z 02001KT M02/M05 A2997 RMK A01 T10231054  RH  080%=      5-min Rain = 0
KMC4 200932Z 02001KT M02/M05 A2997 RMK A01 T10241054  RH  080%=      5-min Rain = 0
KMC4 200933Z 02001KT M02/M05 A2997 RMK A01 T10241054  RH  080%=      5-min Rain = 0
KMC4 200934Z 01002KT M02/M05 A2997 RMK A01 T10241054  RH  080%=      5-min Rain = 0
KMC4 200935Z 01001KT M02/M05 A2997 RMK A01 T10241054  RH  080%=      5-min Rain = 0
KMC4 200936Z 35001KT M02/M05 A2997 RMK A01 T10241054  RH  080%=      5-min Rain = 0
KMC4 200937Z 01001KT M02/M05 A2997 RMK A01 T10241054  RH  080%=      5-min Rain = 0
KMC4 200938Z 01001KT M02/M05 A2997 RMK A01 T10241054  RH  080%=      5-min Rain = 0
KMC4 200939Z 01000KT M02/M05 A2997 RMK A01 T10241054  RH  080%=      5-min Rain = 0
KMC4 200940Z 00000KT M02/M05 A2997 RMK A01 T10241054  RH  080%=      5-min Rain = 0
KMC4 200941Z 00000KT M03/M06 A2998 RMK A01 T10251055  RH  080%=      5-min Rain = 0
KMC4 200942Z 00000KT M03/M06 A2998 RMK A01 T10251055  RH  080%=      5-min Rain = 0
KMC4 200943Z 00000KT M03/M06 A2998 RMK A01 T10251055  RH  080%=      5-min Rain = 0
KMC4 200944Z 00000KT M03/M05 A2998 RMK A01 T10251054  RH  080%=      5-min Rain = 0
KMC4 200945Z 00000KT M03/M06 A2998 RMK A01 T10251056  RH  080%=      5-min Rain = 0
KMC4 200946Z 00000KT M03/M06 A2998 RMK A01 T10271059  RH  079%=      5-min Rain = 0
KMC4 200947Z 08000KT M03/M06 A2998 RMK A01 T10291061  RH  078%=      5-min Rain = 0
KMC4 200948Z 07000KT M03/M06 A2998 RMK A01 T10301062  RH  079%=      5-min Rain = 0
KMC4 200949Z 08000KT M03/M06 A2997 RMK A01 T10311061  RH  080%=      5-min Rain = 0
KMC4 200950Z 08000KT M03/M06 A2998 RMK A01 T10321061  RH  080%=      5-min Rain = 0
KMC4 200951Z 08000KT M03/M06 A2998 RMK A01 T10331061  RH  081%=      5-min Rain = 0
KMC4 200952Z 07000KT M03/M06 A2998 RMK A01 T10341062  RH  081%=      5-min Rain = 0
KMC4 200953Z 04000KT M04/M06 A2998 RMK A01 T10351063  RH  081%=      5-min Rain = 0
KMC4 200954Z 03000KT M04/M06 A2997 RMK A01 T10351062  RH  082%=      5-min Rain = 0
KMC4 200955Z 32000KT M04/M06 A2997 RMK A01 T10351060  RH  083%=      5-min Rain = 0
KMC4 200956Z 29001KT M03/M06 A2997 RMK A01 T10341058  RH  084%=      5-min Rain = 0
KMC4 200957Z 27001KT M03/M06 A2997 RMK A01 T10331056  RH  084%=      5-min Rain = 0
KMC4 200958Z 28001KT M03/M06 A2997 RMK A01 T10321055  RH  084%=      5-min Rain = 0
KMC4 200959Z 27001KT M03/M06 A2997 RMK A01 T10311056  RH  083%=      5-min Rain = 0
KMC4 201000Z 27001KT M03/M06 A2997 RMK A01 T10311055  RH  083%=      5-min Rain = 0
KMC4 201001Z 27001KT M03/M06 A2997 RMK A01 T10301055  RH  083%=      5-min Rain = 0
KMC4 201002Z 28001KT M03/M06 A2998 RMK A01 T10301055  RH  083%=      5-min Rain = 0
KMC4 201003Z 29001KT M03/M05 A2998 RMK A01 T10291054  RH  083%=      5-min Rain = 0
KMC4 201004Z 29001KT M03/M06 A2998 RMK A01 T10291055  RH  082%=      5-min Rain = 0
KMC4 201005Z 30002KT M03/M06 A2998 RMK A01 T10281055  RH  081%=      5-min Rain = 0
KMC4 201006Z 31002KT M03/M06 A2998 RMK A01 T10271056  RH  081%=      5-min Rain = 0
KMC4 201007Z 32002KT M03/M06 A2998 RMK A01 T10261056  RH  080%=      5-min Rain = 0
KMC4 201008Z 33002KT M03/M06 A2998 RMK A01 T10251056  RH  079%=      5-min Rain = 0
KMC4 201009Z 33002KT M03/M06 A2998 RMK A01 T10251056  RH  079%=      5-min Rain = 0
KMC4 201010Z 33002KT M03/M06 A2998 RMK A01 T10251056  RH  079%=      5-min Rain = 0
KMC4 201011Z 33002KT M02/M06 A2998 RMK A01 T10241056  RH  079%=      5-min Rain = 0
KMC4 201012Z 33002KT M02/M06 A2998 RMK A01 T10241056  RH  078%=      5-min Rain = 0
KMC4 201013Z 34002KT M02/M06 A2998 RMK A01 T10241057  RH  078%=      5-min Rain = 0
KMC4 201014Z 33002KT M02/M06 A2998 RMK A01 T10231057  RH  078%=      5-min Rain = 0
KMC4 201015Z 34002KT M02/M06 A2998 RMK A01 T10231057  RH  077%=      5-min Rain = 0
KMC4 201016Z 34002KT M02/M06 A2998 RMK A01 T10231058  RH  077%=      5-min Rain = 0
KMC4 201017Z 34002KT M02/M06 A2998 RMK A01 T10231058  RH  077%=      5-min Rain = 0
KMC4 201018Z 34002KT M02/M06 A2998 RMK A01 T10231058  RH  077%=      5-min Rain = 0
KMC4 201019Z 34002KT M02/M06 A2998 RMK A01 T10231058  RH  077%=      5-min Rain = 0
KMC4 201020Z 34001KT M02/M06 A2998 RMK A01 T10231058  RH  077%=      5-min Rain = 0
KMC4 201021Z 33001KT M02/M06 A2998 RMK A01 T10231058  RH  077%=      5-min Rain = 0
KMC4 201022Z 33001KT M02/M06 A2998 RMK A01 T10231058  RH  077%=      5-min Rain = 0
KMC4 201023Z 34001KT M02/M06 A2998 RMK A01 T10231058  RH  077%=      5-min Rain = 0
KMC4 201024Z 33001KT M02/M06 A2998 RMK A01 T10231058  RH  077%=      5-min Rain = 0
KMC4 201025Z 34000KT M02/M06 A2998 RMK A01 T10231058  RH  077%=      5-min Rain = 0
KMC4 201026Z 00000KT M02/M06 A2998 RMK A01 T10231058  RH  077%=      5-min Rain = 0
KMC4 201027Z 34000KT M02/M06 A2998 RMK A01 T10241059  RH  077%=      5-min Rain = 0
KMC4 201028Z 00001KT M02/M06 A2998 RMK A01 T10231059  RH  077%=      5-min Rain = 0
KMC4 201029Z 01001KT M02/M06 A2998 RMK A01 T10241059  RH  076%=      5-min Rain = 0
KMC4 201030Z 01001KT M02/M06 A2998 RMK A01 T10241059  RH  076%=      5-min Rain = 0
KMC4 201031Z 01002KT M02/M06 A2997 RMK A01 T10241060  RH  076%=      5-min Rain = 0
KMC4 201032Z 00002KT M02/M06 A2997 RMK A01 T10241060  RH  076%=      5-min Rain = 0
KMC4 201033Z 01002KT M02/M06 A2997 RMK A01 T10241060  RH  076%=      5-min Rain = 0
KMC4 201034Z 36002KT M02/M06 A2997 RMK A01 T10241060  RH  076%=      5-min Rain = 0
KMC4 201035Z 35002KT M02/M06 A2997 RMK A01 T10241060  RH  076%=      5-min Rain = 0
KMC4 201036Z 34002KT M02/M06 A2997 RMK A01 T10241060  RH  076%=      5-min Rain = 0
KMC4 201037Z 34002KT M02/M06 A2997 RMK A01 T10241060  RH  076%=      5-min Rain = 0
KMC4 201038Z 34003KT M02/M06 A2997 RMK A01 T10241060  RH  076%=      5-min Rain = 0
KMC4 201039Z 33002KT M02/M06 A2998 RMK A01 T10231059  RH  076%=      5-min Rain = 0
KMC4 201040Z 34003KT M02/M06 A2998 RMK A01 T10221059  RH  076%=      5-min Rain = 0
KMC4 201041Z 34003KT M02/M06 A2998 RMK A01 T10201059  RH  075%=      5-min Rain = 0
KMC4 201042Z 35003KT M02/M06 A2998 RMK A01 T10191059  RH  074%=      5-min Rain = 0
KMC4 201043Z 35003KT M02/M06 A2997 RMK A01 T10181059  RH  073%=      5-min Rain = 0
KMC4 201044Z 34003KT M02/M06 A2997 RMK A01 T10191060  RH  074%=      5-min Rain = 0
KMC4 201045Z 35003KT M02/M06 A2997 RMK A01 T10211061  RH  074%=      5-min Rain = 0
KMC4 201046Z 34003KT M02/M06 A2998 RMK A01 T10221061  RH  075%=      5-min Rain = 0
KMC4 201047Z 34003KT M02/M06 A2997 RMK A01 T10221061  RH  075%=      5-min Rain = 0
KMC4 201048Z 33004KT M02/M06 A2997 RMK A01 T10221061  RH  074%=      5-min Rain = 0
KMC4 201049Z 32004KT M02/M06 A2997 RMK A01 T10201061  RH  073%=      5-min Rain = 0
KMC4 201050Z 32004KT M02/M06 A2997 RMK A01 T10181062  RH  072%=      5-min Rain = 0
KMC4 201051Z 32004KT M02/M06 A2997 RMK A01 T10181063  RH  071%=      5-min Rain = 0
KMC4 201052Z 32004KT M02/M06 A2997 RMK A01 T10181063  RH  071%=      5-min Rain = 0
KMC4 201053Z 32004KT M02/M06 A2997 RMK A01 T10181064  RH  071%=      5-min Rain = 0
KMC4 201054Z 32003KT M02/M07 A2997 RMK A01 T10201065  RH  071%=      5-min Rain = 0
KMC4 201055Z 31003KT M02/M06 A2997 RMK A01 T10211064  RH  072%=      5-min Rain = 0
KMC4 201056Z 31003KT M02/M06 A2997 RMK A01 T10211064  RH  072%=      5-min Rain = 0
KMC4 201057Z 31003KT M02/M06 A2997 RMK A01 T10211064  RH  073%=      5-min Rain = 0
KMC4 201058Z 30003KT M02/M06 A2997 RMK A01 T10211064  RH  073%=      5-min Rain = 0
KMC4 201059Z 30003KT M02/M06 A2997 RMK A01 T10211064  RH  073%=      5-min Rain = 0
KMC4 201100Z 30004KT M02/M06 A2997 RMK A01 T10211064  RH  072%=      5-min Rain = 0
KMC4 201101Z 29003KT M02/M07 A2997 RMK A01 T10211065  RH  072%=      5-min Rain = 0
KMC4 201102Z 29003KT M02/M07 A2997 RMK A01 T10211065  RH  072%=      5-min Rain = 0
KMC4 201103Z 28003KT M02/M07 A2997 RMK A01 T10211065  RH  072%=      5-min Rain = 0
KMC4 201104Z 28003KT M02/M07 A2997 RMK A01 T10211066  RH  071%=      5-min Rain = 0
KMC4 201105Z 28003KT M02/M07 A2997 RMK A01 T10211065  RH  071%=      5-min Rain = 0
KMC4 201106Z 28003KT M02/M07 A2997 RMK A01 T10211066  RH  071%=      5-min Rain = 0
KMC4 201107Z 28003KT M02/M07 A2997 RMK A01 T10231068  RH  071%=      5-min Rain = 0
KMC4 201108Z 27003KT M02/M07 A2997 RMK A01 T10241068  RH  072%=      5-min Rain = 0
KMC4 201109Z 28004KT M03/M07 A2997 RMK A01 T10251067  RH  073%=      5-min Rain = 0
KMC4 201110Z 27003KT M03/M07 A2997 RMK A01 T10261067  RH  073%=      5-min Rain = 0
KMC4 201111Z 28003KT M03/M07 A2997 RMK A01 T10261068  RH  073%=      5-min Rain = 0
KMC4 201112Z 28004KT M03/M07 A2997 RMK A01 T10271068  RH  074%=      5-min Rain = 0
KMC4 201113Z 27003KT M03/M07 A2997 RMK A01 T10291069  RH  074%=      5-min Rain = 0
KMC4 201114Z 28003KT M03/M07 A2997 RMK A01 T10301069  RH  074%=      5-min Rain = 0
KMC4 201115Z 27003KT M03/M07 A2997 RMK A01 T10301069  RH  075%=      5-min Rain = 0
KMC4 201116Z 28003KT M03/M07 A2997 RMK A01 T10311069  RH  075%=      5-min Rain = 0
KMC4 201117Z 28003KT M03/M07 A2997 RMK A01 T10311069  RH  075%=      5-min Rain = 0
KMC4 201118Z 29003KT M03/M07 A2997 RMK A01 T10321069  RH  075%=      5-min Rain = 0
KMC4 201119Z 29003KT M03/M07 A2997 RMK A01 T10321069  RH  075%=      5-min Rain = 0
KMC4 201120Z 29003KT M03/M07 A2997 RMK A01 T10311069  RH  075%=      5-min Rain = 0
KMC4 201121Z 28003KT M03/M07 A2997 RMK A01 T10311069  RH  076%=      5-min Rain = 0
KMC4 201122Z 28003KT M03/M07 A2997 RMK A01 T10321069  RH  076%=      5-min Rain = 0
KMC4 201123Z 29003KT M03/M07 A2997 RMK A01 T10321069  RH  075%=      5-min Rain = 0
KMC4 201124Z 29003KT M03/M07 A2997 RMK A01 T10321070  RH  075%=      5-min Rain = 0
KMC4 201125Z 28003KT M03/M07 A2997 RMK A01 T10321070  RH  075%=      5-min Rain = 0
KMC4 201126Z 28003KT M03/M07 A2997 RMK A01 T10321070  RH  075%=      5-min Rain = 0
KMC4 201127Z 29002KT M03/M07 A2997 RMK A01 T10321070  RH  075%=      5-min Rain = 0
KMC4 201128Z 29002KT M03/M07 A2998 RMK A01 T10321070  RH  075%=      5-min Rain = 0
KMC4 201129Z 29002KT M03/M07 A2998 RMK A01 T10321070  RH  075%=      5-min Rain = 0
KMC4 201130Z 29002KT M03/M07 A2998 RMK A01 T10321070  RH  075%=      5-min Rain = 0
KMC4 201131Z 29002KT M03/M07 A2998 RMK A01 T10331071  RH  075%=      5-min Rain = 0
KMC4 201132Z 29002KT M03/M07 A2998 RMK A01 T10331071  RH  075%=      5-min Rain = 0
KMC4 201133Z 29002KT M03/M07 A2998 RMK A01 T10331071  RH  075%=      5-min Rain = 0
KMC4 201134Z 29002KT M03/M07 A2998 RMK A01 T10331071  RH  075%=      5-min Rain = 0
KMC4 201135Z 29001KT M03/M07 A2998 RMK A01 T10331070  RH  075%=      5-min Rain = 0
KMC4 201136Z 29001KT M03/M07 A2998 RMK A01 T10341071  RH  075%=      5-min Rain = 0
KMC4 201137Z 29001KT M03/M07 A2998 RMK A01 T10341070  RH  076%=      5-min Rain = 0
KMC4 201138Z 29000KT M03/M07 A2998 RMK A01 T10341070  RH  076%=      5-min Rain = 0
KMC4 201139Z 29000KT M03/M07 A2998 RMK A01 T10341070  RH  076%=      5-min Rain = 0
KMC4 201140Z 29000KT M03/M07 A2998 RMK A01 T10341070  RH  076%=      5-min Rain = 0
KMC4 201141Z 00000KT M03/M07 A2998 RMK A01 T10341070  RH  076%=      5-min Rain = 0
KMC4 201142Z 00000KT M03/M07 A2998 RMK A01 T10341070  RH  076%=      5-min Rain = 0
KMC4 201143Z 00000KT M03/M07 A2998 RMK A01 T10341071  RH  076%=      5-min Rain = 0
KMC4 201144Z 00000KT M03/M07 A2998 RMK A01 T10341070  RH  076%=      5-min Rain = 0
KMC4 201145Z 00000KT M03/M07 A2998 RMK A01 T10341070  RH  076%=      5-min Rain = 0
KMC4 201146Z 00000KT M03/M07 A2998 RMK A01 T10331069  RH  076%=      5-min Rain = 0
KMC4 201147Z 00000KT M03/M07 A2998 RMK A01 T10331069  RH  076%=      5-min Rain = 0
KMC4 201148Z 00000KT M03/M07 A2998 RMK A01 T10321069  RH  076%=      5-min Rain = 0
KMC4 201149Z 00000KT M03/M07 A2998 RMK A01 T10321069  RH  076%=      5-min Rain = 0
KMC4 201150Z 03001KT M03/M07 A2998 RMK A01 T10321069  RH  075%=      5-min Rain = 0
KMC4 201151Z 04001KT M03/M07 A2998 RMK A01 T10311069  RH  075%=      5-min Rain = 0
KMC4 201152Z 02001KT M03/M07 A2998 RMK A01 T10311069  RH  075%=      5-min Rain = 0
KMC4 201153Z 03001KT M03/M07 A2998 RMK A01 T10301069  RH  075%=      5-min Rain = 0
KMC4 201154Z 04001KT M03/M07 A2998 RMK A01 T10301068  RH  075%=      5-min Rain = 0
KMC4 201155Z 03002KT M03/M07 A2998 RMK A01 T10291069  RH  074%=      5-min Rain = 0
KMC4 201156Z 02002KT M03/M07 A2998 RMK A01 T10291069  RH  074%=      5-min Rain = 0
KMC4 201157Z 02002KT M03/M07 A2998 RMK A01 T10291069  RH  074%=      5-min Rain = 0
KMC4 201158Z 03003KT M03/M07 A2998 RMK A01 T10291068  RH  074%=      5-min Rain = 0
KMC4 201159Z 02003KT M03/M07 A2998 RMK A01 T10291069  RH  074%=      5-min Rain = 0
KMC4 201200Z 02003KT M03/M07 A2998 RMK A01 T10291068  RH  074%=      5-min Rain = 0
KMC4 201201Z 03003KT M03/M07 A2998 RMK A01 T10291068  RH  074%=      5-min Rain = 0
KMC4 201202Z 03004KT M03/M07 A2998 RMK A01 T10281068  RH  074%=      5-min Rain = 0
KMC4 201203Z 02004KT M03/M07 A2998 RMK A01 T10271067  RH  074%=      5-min Rain = 0
KMC4 201204Z 02004KT M03/M07 A2998 RMK A01 T10261066  RH  074%=      5-min Rain = 0
KMC4 201205Z 02004KT M02/M07 A2998 RMK A01 T10241066  RH  073%=      5-min Rain = 0
KMC4 201206Z 02004KT M02/M07 A2998 RMK A01 T10231066  RH  072%=      5-min Rain = 0
KMC4 201207Z 02004KT M02/M07 A2998 RMK A01 T10221066  RH  072%=      5-min Rain = 0
KMC4 201208Z 01004KT M02/M07 A2998 RMK A01 T10221067  RH  071%=      5-min Rain = 0
KMC4 201209Z 36003KT M02/M07 A2998 RMK A01 T10211067  RH  071%=      5-min Rain = 0
KMC4 201210Z 00004KT M02/M07 A2998 RMK A01 T10211067  RH  070%=      5-min Rain = 0
KMC4 201211Z 01003KT M02/M07 A2998 RMK A01 T10201067  RH  070%=      5-min Rain = 0
KMC4 201212Z 36003KT M02/M07 A2998 RMK A01 T10201067  RH  070%=      5-min Rain = 0
KMC4 201213Z 35003KT M02/M07 A2998 RMK A01 T10201067  RH  070%=      5-min Rain = 0
KMC4 201214Z 36003KT M02/M07 A2998 RMK A01 T10201067  RH  070%=      5-min Rain = 0
KMC4 201215Z 36003KT M02/M07 A2998 RMK A01 T10201068  RH  070%=      5-min Rain = 0
KMC4 201216Z 35003KT M02/M07 A2998 RMK A01 T10201068  RH  070%=      5-min Rain = 0
KMC4 201217Z 34003KT M02/M07 A2998 RMK A01 T10201068  RH  070%=      5-min Rain = 0
KMC4 201218Z 34003KT M02/M07 A2998 RMK A01 T10201068  RH  070%=      5-min Rain = 0
KMC4 201219Z 34003KT M02/M07 A2998 RMK A01 T10201068  RH  070%=      5-min Rain = 0
KMC4 201220Z 34003KT M02/M07 A2998 RMK A01 T10191067  RH  070%=      5-min Rain = 0
KMC4 201221Z 33003KT M02/M07 A2998 RMK A01 T10191068  RH  069%=      5-min Rain = 0
KMC4 201222Z 32003KT M02/M07 A2998 RMK A01 T10171067  RH  069%=      5-min Rain = 0
KMC4 201223Z 33003KT M02/M07 A2998 RMK A01 T10151067  RH  067%=      5-min Rain = 0
KMC4 201224Z 33003KT M01/M07 A2998 RMK A01 T10141068  RH  067%=      5-min Rain = 0
KMC4 201225Z 33003KT M01/M07 A2998 RMK A01 T10131068  RH  066%=      5-min Rain = 0
KMC4 201226Z 33003KT M01/M07 A2998 RMK A01 T10121069  RH  065%=      5-min Rain = 0
KMC4 201227Z 33003KT M01/M07 A2998 RMK A01 T10111069  RH  065%=      5-min Rain = 0
KMC4 201228Z 33003KT M01/M07 A2998 RMK A01 T10111069  RH  064%=      5-min Rain = 0
KMC4 201229Z 34003KT M01/M07 A2998 RMK A01 T10101069  RH  064%=      5-min Rain = 0
KMC4 201230Z 34002KT M01/M07 A2998 RMK A01 T10091069  RH  064%=      5-min Rain = 0
KMC4 201231Z 34002KT M01/M07 A2999 RMK A01 T10101069  RH  064%=      5-min Rain = 0
KMC4 201232Z 35002KT M01/M07 A2999 RMK A01 T10121069  RH  065%=      5-min Rain = 0
KMC4 201233Z 35001KT M01/M07 A2999 RMK A01 T10141069  RH  066%=      5-min Rain = 0
KMC4 201234Z 34002KT M02/M07 A2999 RMK A01 T10151069  RH  067%=      5-min Rain = 0
KMC4 201235Z 35001KT M02/M07 A2999 RMK A01 T10161069  RH  067%=      5-min Rain = 0
KMC4 201236Z 33000KT M02/M07 A2999 RMK A01 T10161069  RH  067%=      5-min Rain = 0
KMC4 201237Z 32000KT M02/M07 A2999 RMK A01 T10161069  RH  067%=      5-min Rain = 0
KMC4 201238Z 33000KT M02/M07 A2999 RMK A01 T10161070  RH  067%=      5-min Rain = 0
KMC4 201239Z 00000KT M02/M07 A2999 RMK A01 T10161069  RH  067%=      5-min Rain = 0
KMC4 201240Z 00000KT M02/M07 A2999 RMK A01 T10171068  RH  068%=      5-min Rain = 0
KMC4 201241Z 00000KT M02/M07 A2999 RMK A01 T10171069  RH  068%=      5-min Rain = 0
KMC4 201242Z 00000KT M02/M07 A2999 RMK A01 T10181069  RH  068%=      5-min Rain = 0
KMC4 201243Z 00000KT M02/M07 A2999 RMK A01 T10201070  RH  069%=      5-min Rain = 0
KMC4 201244Z 00000KT M02/M07 A2999 RMK A01 T10221070  RH  069%=      5-min Rain = 0
KMC4 201245Z 00000KT M02/M07 A2999 RMK A01 T10241071  RH  070%=      5-min Rain = 0
KMC4 201246Z 00000KT M03/M07 A2999 RMK A01 T10261072  RH  071%=      5-min Rain = 0
KMC4 201247Z 00000KT M03/M07 A2999 RMK A01 T10271072  RH  071%=      5-min Rain = 0
KMC4 201248Z 00000KT M03/M07 A2999 RMK A01 T10291072  RH  072%=      5-min Rain = 0
KMC4 201249Z 00000KT M03/M07 A2999 RMK A01 T10291071  RH  073%=      5-min Rain = 0
KMC4 201250Z 00000KT M03/M07 A2999 RMK A01 T10301071  RH  073%=      5-min Rain = 0
KMC4 201251Z 00000KT M03/M07 A2999 RMK A01 T10311071  RH  074%=      5-min Rain = 0
KMC4 201252Z 00000KT M03/M07 A2999 RMK A01 T10311071  RH  074%=      5-min Rain = 0
KMC4 201253Z 00000KT M03/M07 A2999 RMK A01 T10321071  RH  074%=      5-min Rain = 0
KMC4 201254Z 00000KT M03/M07 A2999 RMK A01 T10321072  RH  074%=      5-min Rain = 0
KMC4 201255Z 00000KT M03/M07 A2999 RMK A01 T10321071  RH  074%=      5-min Rain = 0
KMC4 201256Z 00000KT M03/M07 A2999 RMK A01 T10321069  RH  076%=      5-min Rain = 0
KMC4 201257Z 09000KT M03/M07 A2999 RMK A01 T10311067  RH  076%=      5-min Rain = 0
KMC4 201258Z 10000KT M03/M07 A2999 RMK A01 T10301068  RH  076%=      5-min Rain = 0
KMC4 201259Z 10001KT M03/M07 A2999 RMK A01 T10291068  RH  074%=      5-min Rain = 0
KMC4 201300Z 10001KT M03/M07 A2999 RMK A01 T10281069  RH  074%=      5-min Rain = 0
KMC4 201301Z 10001KT M03/M07 A2999 RMK A01 T10271068  RH  073%=      5-min Rain = 0
KMC4 201302Z 10001KT M03/M07 A2999 RMK A01 T10261069  RH  072%=      5-min Rain = 0
KMC4 201303Z 10001KT M03/M07 A2999 RMK A01 T10251069  RH  072%=      5-min Rain = 0
KMC4 201304Z 10001KT M02/M07 A2999 RMK A01 T10241069  RH  071%=      5-min Rain = 0
KMC4 201305Z 10000KT M02/M07 A2999 RMK A01 T10221069  RH  070%=      5-min Rain = 0
KMC4 201306Z 10000KT M02/M07 A30 RMK A01 T10211069  RH  070%=      5-min Rain = 0
KMC4 201307Z 10001KT M02/M07 A30 RMK A01 T10211069  RH  070%=      5-min Rain = 0
KMC4 201308Z 10001KT M02/M07 A2999 RMK A01 T10211069  RH  070%=      5-min Rain = 0
KMC4 201309Z 10001KT M02/M07 A2999 RMK A01 T10211069  RH  070%=      5-min Rain = 0
KMC4 201310Z 10001KT M02/M07 A30 RMK A01 T10211069  RH  069%=      5-min Rain = 0
KMC4 201311Z 10001KT M02/M07 A30 RMK A01 T10201069  RH  069%=      5-min Rain = 0
KMC4 201312Z 10001KT M02/M07 A2999 RMK A01 T10201069  RH  069%=      5-min Rain = 0
KMC4 201313Z 10001KT M02/M07 A2999 RMK A01 T10201069  RH  069%=      5-min Rain = 0
KMC4 201314Z 09001KT M02/M07 A2999 RMK A01 T10211069  RH  069%=      5-min Rain = 0
KMC4 201315Z 08001KT M02/M07 A2999 RMK A01 T10211069  RH  069%=      5-min Rain = 0
KMC4 201316Z 07000KT M02/M07 A2999 RMK A01 T10201069  RH  069%=      5-min Rain = 0
KMC4 201317Z 07000KT M02/M07 A2999 RMK A01 T10201069  RH  069%=      5-min Rain = 0
KMC4 201318Z 00000KT M02/M07 A2999 RMK A01 T10201069  RH  069%=      5-min Rain = 0
KMC4 201319Z 00000KT M02/M07 A2999 RMK A01 T10201069  RH  069%=      5-min Rain = 0
KMC4 201320Z 00000KT M02/M07 A2999 RMK A01 T10201070  RH  068%=      5-min Rain = 0
KMC4 201321Z 00000KT M02/M07 A2999 RMK A01 T10201071  RH  068%=      5-min Rain = 0
KMC4 201322Z 00000KT M02/M07 A2999 RMK A01 T10201072  RH  068%=      5-min Rain = 0
KMC4 201323Z 00000KT M02/M07 A2999 RMK A01 T10191072  RH  067%=      5-min Rain = 0
KMC4 201324Z 00000KT M02/M07 A2999 RMK A01 T10191072  RH  067%=      5-min Rain = 0
KMC4 201325Z 00000KT M02/M07 A30 RMK A01 T10191072  RH  067%=      5-min Rain = 0
KMC4 201326Z 00000KT M02/M07 A30 RMK A01 T10191072  RH  067%=      5-min Rain = 0
KMC4 201327Z 00000KT M02/M07 A30 RMK A01 T10191072  RH  067%=      5-min Rain = 0
KMC4 201328Z 00000KT M02/M07 A30 RMK A01 T10191072  RH  067%=      5-min Rain = 0
KMC4 201329Z 00000KT M02/M07 A2999 RMK A01 T10191072  RH  067%=      5-min Rain = 0
KMC4 201330Z 00000KT M02/M07 A2999 RMK A01 T10201072  RH  067%=      5-min Rain = 0
KMC4 201331Z 00000KT M02/M07 A2999 RMK A01 T10191072  RH  067%=      5-min Rain = 0
KMC4 201332Z 33000KT M02/M07 A2999 RMK A01 T10191073  RH  067%=      5-min Rain = 0
KMC4 201333Z 34001KT M02/M07 A2999 RMK A01 T10191073  RH  067%=      5-min Rain = 0
KMC4 201334Z 34001KT M02/M07 A2999 RMK A01 T10181073  RH  066%=      5-min Rain = 0
KMC4 201335Z 34002KT M02/M07 A30 RMK A01 T10171073  RH  065%=      5-min Rain = 0
KMC4 201336Z 34002KT M02/M07 A30 RMK A01 T10161073  RH  065%=      5-min Rain = 0
KMC4 201337Z 34002KT M02/M07 A30 RMK A01 T10151074  RH  064%=      5-min Rain = 0
KMC4 201338Z 34002KT M01/M07 A30 RMK A01 T10131074  RH  063%=      5-min Rain = 0
KMC4 201339Z 34002KT M01/M07 A30 RMK A01 T10121074  RH  063%=      5-min Rain = 0
KMC4 201340Z 34002KT M01/M07 A30 RMK A01 T10121074  RH  063%=      5-min Rain = 0
KMC4 201341Z 35002KT M01/M07 A30 RMK A01 T10131073  RH  064%=      5-min Rain = 0
KMC4 201342Z 35002KT M01/M07 A30 RMK A01 T10141073  RH  064%=      5-min Rain = 0
KMC4 201343Z 35002KT M01/M07 A30 RMK A01 T10141073  RH  064%=      5-min Rain = 0
KMC4 201344Z 35002KT M02/M07 A30 RMK A01 T10151073  RH  065%=      5-min Rain = 0
KMC4 201345Z 35002KT M02/M07 A30 RMK A01 T10161073  RH  065%=      5-min Rain = 0
KMC4 201346Z 35001KT M02/M07 A30 RMK A01 T10161073  RH  065%=      5-min Rain = 0
KMC4 201347Z 00001KT M02/M07 A30 RMK A01 T10161074  RH  065%=      5-min Rain = 0
KMC4 201348Z 00000KT M02/M07 A2999 RMK A01 T10161073  RH  065%=      5-min Rain = 0
KMC4 201349Z 01000KT M02/M07 A2999 RMK A01 T10161073  RH  065%=      5-min Rain = 0
KMC4 201350Z 01001KT M02/M07 A2999 RMK A01 T10161072  RH  065%=      5-min Rain = 0
KMC4 201351Z 03001KT M02/M07 A2999 RMK A01 T10161071  RH  066%=      5-min Rain = 0
KMC4 201352Z 03002KT M02/M07 A2999 RMK A01 T10161071  RH  066%=      5-min Rain = 0
KMC4 201353Z 03002KT M02/M07 A2999 RMK A01 T10161071  RH  066%=      5-min Rain = 0
KMC4 201354Z 03002KT M02/M07 A2999 RMK A01 T10171071  RH  066%=      5-min Rain = 0
KMC4 201355Z 03003KT M02/M07 A30 RMK A01 T10161071  RH  066%=      5-min Rain = 0
KMC4 201356Z 03003KT M02/M07 A30 RMK A01 T10161070  RH  066%=      5-min Rain = 0
KMC4 201357Z 03003KT M02/M07 A30 RMK A01 T10151070  RH  066%=      5-min Rain = 0
KMC4 201358Z 03004KT M01/M07 A30 RMK A01 T10141070  RH  065%=      5-min Rain = 0
KMC4 201359Z 04003KT M01/M07 A30 RMK A01 T10141070  RH  065%=      5-min Rain = 0
KMC4 201400Z 04003KT M01/M07 A30 RMK A01 T10141071  RH  065%=      5-min Rain = 0
KMC4 201401Z 04003KT M01/M07 A30 RMK A01 T10131070  RH  065%=      5-min Rain = 0
KMC4 201402Z 05002KT M01/M07 A30 RMK A01 T10121071  RH  064%=      5-min Rain = 0
KMC4 201403Z 06002KT M01/M07 A30 RMK A01 T10111070  RH  064%=      5-min Rain = 0
KMC4 201404Z 08002KT M01/M07 A30 RMK A01 T10111069  RH  065%=      5-min Rain = 0
KMC4 201405Z 08002KT M01/M07 A30 RMK A01 T10101069  RH  064%=      5-min Rain = 0
KMC4 201406Z 08001KT M01/M07 A30 RMK A01 T10081068  RH  064%=      5-min Rain = 0
KMC4 201407Z 08002KT M01/M07 A30 RMK A01 T10071067  RH  064%=      5-min Rain = 0
KMC4 201408Z 07002KT M01/M07 A30 RMK A01 T10061065  RH  064%=      5-min Rain = 0
KMC4 201409Z 07001KT M01/M06 A30 RMK A01 T10061063  RH  065%=      5-min Rain = 0
KMC4 201410Z 05000KT M01/M06 A30 RMK A01 T10051061  RH  066%=      5-min Rain = 0
KMC4 201411Z 05002KT M01/M06 A30 RMK A01 T10051061  RH  066%=      5-min Rain = 0
KMC4 201412Z 03002KT M00/M07 A3001 RMK A01 T10041066  RH  063%=      5-min Rain = 0
KMC4 201413Z 02002KT M00/M07 A3001 RMK A01 T10031065  RH  063%=      5-min Rain = 0
KMC4 201414Z 04003KT M00/M06 A3001 RMK A01 T10021064  RH  063%=      5-min Rain = 0
KMC4 201415Z 01001KT M00/M07 A3001 RMK A01 T10011065  RH  062%=      5-min Rain = 0
KMC4 201416Z 00002KT 00/M06 A3001 RMK A01 T00021064  RH  062%=      5-min Rain = 0
KMC4 201417Z 01002KT 00/M06 A3001 RMK A01 T00031062  RH  062%=      5-min Rain = 0
KMC4 201418Z 36002KT 00/M06 A3001 RMK A01 T00041064  RH  060%=      5-min Rain = 0
KMC4 201419Z 36002KT 01/M06 A3001 RMK A01 T00061064  RH  060%=      5-min Rain = 0
KMC4 201420Z 35002KT 01/M06 A3001 RMK A01 T00071063  RH  059%=      5-min Rain = 0
KMC4 201421Z 33001KT 01/M06 A3001 RMK A01 T00091062  RH  059%=      5-min Rain = 0
KMC4 201422Z 30001KT 01/M06 A3001 RMK A01 T00111061  RH  059%=      5-min Rain = 0
KMC4 201423Z 32001KT 01/M06 A3001 RMK A01 T00121061  RH  058%=      5-min Rain = 0
KMC4 201424Z 30001KT 01/M06 A30 RMK A01 T00141057  RH  059%=      5-min Rain = 0
KMC4 201425Z 29002KT 02/M06 A30 RMK A01 T00151059  RH  058%=      5-min Rain = 0
KMC4 201426Z 29002KT 02/M06 A30 RMK A01 T00161058  RH  058%=      5-min Rain = 0
KMC4 201427Z 31002KT 02/M06 A30 RMK A01 T00181058  RH  057%=      5-min Rain = 0
KMC4 201428Z 31003KT 02/M06 A30 RMK A01 T00201058  RH  056%=      5-min Rain = 0
KMC4 201429Z 32003KT 02/M06 A30 RMK A01 T00211060  RH  055%=      5-min Rain = 0
KMC4 201430Z 32004KT 02/M06 A30 RMK A01 T00221063  RH  053%=      5-min Rain = 0
KMC4 201431Z 33004KT 02/M06 A30 RMK A01 T00241063  RH  053%=      5-min Rain = 0
KMC4 201432Z 33004KT 03/M06 A30 RMK A01 T00251063  RH  052%=      5-min Rain = 0
KMC4 201433Z 33005KT 03/M07 A30 RMK A01 T00261065  RH  051%=      5-min Rain = 0
KMC4 201434Z 33005KT 03/M06 A30 RMK A01 T00271064  RH  051%=      5-min Rain = 0
KMC4 201435Z 33005KT 03/M06 A30 RMK A01 T00281063  RH  051%=      5-min Rain = 0
KMC4 201436Z 33005KT 03/M06 A30 RMK A01 T00291064  RH  051%=      5-min Rain = 0
KMC4 201437Z 33005KT 03/M07 A30 RMK A01 T00291067  RH  049%=      5-min Rain = 0
KMC4 201438Z 33004KT 03/M07 A30 RMK A01 T00301070  RH  048%=      5-min Rain = 0
KMC4 201439Z 33004KT 03/M07 A30 RMK A01 T00311067  RH  049%=      5-min Rain = 0
KMC4 201440Z 33004KT 03/M07 A30 RMK A01 T00321066  RH  049%=      5-min Rain = 0
KMC4 201441Z 33004KT 03/M07 A30 RMK A01 T00321067  RH  048%=      5-min Rain = 0
KMC4 201442Z 32005KT 03/M07 A30 RMK A01 T00341067  RH  048%=      5-min Rain = 0
KMC4 201443Z 32004KT 04/M07 A30 RMK A01 T00351069  RH  047%=      5-min Rain = 0
KMC4 201444Z 32004KT 04/M07 A30 RMK A01 T00361067  RH  047%=      5-min Rain = 0
KMC4 201445Z 32004KT 04/M07 A30 RMK A01 T00371066  RH  047%=      5-min Rain = 0
KMC4 201446Z 32003KT 04/M07 A30 RMK A01 T00381067  RH  046%=      5-min Rain = 0
KMC4 201447Z 32004KT 04/M07 A30 RMK A01 T00401066  RH  046%=      5-min Rain = 0
KMC4 201448Z 32004KT 04/M07 A30 RMK A01 T00411068  RH  045%=      5-min Rain = 0
KMC4 201449Z 32003KT 04/M07 A30 RMK A01 T00421068  RH  045%=      5-min Rain = 0
KMC4 201450Z 32004KT 04/M07 A30 RMK A01 T00431066  RH  045%=      5-min Rain = 0
KMC4 201451Z 32004KT 05/M07 A30 RMK A01 T00451066  RH  044%=      5-min Rain = 0
KMC4 201452Z 33005KT 05/M07 A30 RMK A01 T00461068  RH  043%=      5-min Rain = 0
KMC4 201453Z 32005KT 05/M07 A30 RMK A01 T00471070  RH  042%=      5-min Rain = 0
KMC4 201454Z 32006KT 05/M07 A30 RMK A01 T00491070  RH  042%=      5-min Rain = 0
KMC4 201455Z 32004KT 05/M07 A30 RMK A01 T00501069  RH  042%=      5-min Rain = 0
KMC4 201456Z 32004KT 05/M07 A30 RMK A01 T00521068  RH  041%=      5-min Rain = 0
KMC4 201457Z 32008KT 05/M07 A30 RMK A01 T00541069  RH  040%=      5-min Rain = 0
KMC4 201458Z 32006KT 06/M07 A30 RMK A01 T00561074  RH  039%=      5-min Rain = 0
KMC4 201459Z 32007KT 06/M07 A30 RMK A01 T00571074  RH  038%=      5-min Rain = 0
KMC4 201500Z 31007KT 06/M08 A30 RMK A01 T00591076  RH  037%=      5-min Rain = 0
KMC4 201501Z 31007KT 06/M08 A30 RMK A01 T00601077  RH  037%=      5-min Rain = 0
KMC4 201502Z 31006KT 06/M08 A30 RMK A01 T00611079  RH  036%=      5-min Rain = 0
KMC4 201503Z 32008KT 06/M08 A30 RMK A01 T00621078  RH  036%=      5-min Rain = 0
KMC4 201504Z 33006KT 06/M08 A30 RMK A01 T00641080  RH  035%=      5-min Rain = 0
KMC4 201505Z 32007KT 07/M08 A30 RMK A01 T00651076  RH  036%=      5-min Rain = 0
KMC4 201506Z 31008KT 07/M08 A30 RMK A01 T00661078  RH  035%=      5-min Rain = 0
KMC4 201507Z 30009KT 07/M08 A30 RMK A01 T00661081  RH  034%=      5-min Rain = 0
KMC4 201508Z 31007KT 07/M08 A30 RMK A01 T00661082  RH  034%=      5-min Rain = 0
KMC4 201509Z 32009KT 07/M08 A30 RMK A01 T00671080  RH  034%=      5-min Rain = 0
KMC4 201510Z 31009KT 07/M09 A30 RMK A01 T00681085  RH  033%=      5-min Rain = 0
KMC4 201511Z 31008KT 07/M08 A30 RMK A01 T00691082  RH  033%=      5-min Rain = 0
KMC4 201512Z 31011KT 07/M08 A30 RMK A01 T00701081  RH  033%=      5-min Rain = 0
KMC4 201513Z 32009KT 07/M08 A30 RMK A01 T00711083  RH  032%=      5-min Rain = 0
KMC4 201514Z 31009KT 07/M08 A30 RMK A01 T00721083  RH  032%=      5-min Rain = 0
KMC4 201515Z 31011KT 07/M08 A30 RMK A01 T00731083  RH  032%=      5-min Rain = 0
KMC4 201516Z 31009KT 07/M08 A30 RMK A01 T00731083  RH  032%=      5-min Rain = 0
KMC4 201517Z 31010KT 07/M09 A30 RMK A01 T00731085  RH  031%=      5-min Rain = 0
KMC4 201518Z 30008KT 07/M09 A30 RMK A01 T00741085  RH  031%=      5-min Rain = 0
KMC4 201519Z 30008KT 08/M09 A30 RMK A01 T00751087  RH  031%=      5-min Rain = 0
KMC4 201520Z 31007KT 08/M08 A30 RMK A01 T00751084  RH  031%=      5-min Rain = 0
KMC4 201521Z 30007KT 08/M08 A30 RMK A01 T00771082  RH  032%=      5-min Rain = 0
KMC4 201522Z 29010KT 08/M09 A30 RMK A01 T00781085  RH  031%=      5-min Rain = 0
KMC4 201523Z 29010KT 08/M09 A30 RMK A01 T00771089  RH  030%=      5-min Rain = 0
KMC4 201524Z 29009KT 08/M09 A30 RMK A01 T00761089  RH  030%=      5-min Rain = 0
KMC4 201525Z 29009KT 08/M09 A3001 RMK A01 T00771088  RH  030%=      5-min Rain = 0
KMC4 201526Z 29010KT 08/M09 A3001 RMK A01 T00781088  RH  030%=      5-min Rain = 0
KMC4 201527Z 29009KT 08/M09 A3001 RMK A01 T00781088  RH  030%=      5-min Rain = 0
KMC4 201528Z 29006KT 08/M09 A3001 RMK A01 T00771087  RH  030%=      5-min Rain = 0
KMC4 201529Z 31008KT 08/M08 A3001 RMK A01 T00781083  RH  031%=      5-min Rain = 0
KMC4 201530Z 30010KT 08/M09 A3001 RMK A01 T00801085  RH  030%=      5-min Rain = 0
KMC4 201531Z 29011KT 08/M09 A3001 RMK A01 T00801089  RH  029%=      5-min Rain = 0
KMC4 201532Z 30011KT 08/M09 A3001 RMK A01 T00781093  RH  029%=      5-min Rain = 0
KMC4 201533Z 30011KT 08/M09 A30 RMK A01 T00771093  RH  029%=      5-min Rain = 0
KMC4 201534Z 30011KT 08/M09 A30 RMK A01 T00771093  RH  029%=      5-min Rain = 0
KMC4 201535Z 30012KT 08/M09 A3001 RMK A01 T00771093  RH  029%=      5-min Rain = 0
KMC4 201536Z 29009KT 08/M09 A3001 RMK A01 T00771092  RH  029%=      5-min Rain = 0
KMC4 201537Z 29010KT 08/M09 A30 RMK A01 T00781090  RH  029%=      5-min Rain = 0
KMC4 201538Z 30011KT 08/M09 A30 RMK A01 T00791090  RH  029%=      5-min Rain = 0
KMC4 201539Z 29009KT 08/M09 A30 RMK A01 T00801090  RH  029%=      5-min Rain = 0
KMC4 201540Z 30008KT 08/M09 A30 RMK A01 T00811087  RH  029%=      5-min Rain = 0
KMC4 201541Z 30008KT 08/M08 A30 RMK A01 T00831084  RH  030%=      5-min Rain = 0
KMC4 201542Z 31010KT 08/M09 A30 RMK A01 T00841087  RH  029%=      5-min Rain = 0
KMC4 201543Z 31010KT 08/M09 A30 RMK A01 T00841089  RH  028%=      5-min Rain = 0
KMC4 201544Z 30012KT 08/M09 A30 RMK A01 T00841090  RH  028%=      5-min Rain = 0
KMC4 201545Z 31008KT 08/M09 A30 RMK A01 T00841090  RH  028%=      5-min Rain = 0
KMC4 201546Z 30008KT 08/M09 A30 RMK A01 T00841087  RH  029%=      5-min Rain = 0
KMC4 201547Z 30009KT 09/M09 A30 RMK A01 T00851089  RH  028%=      5-min Rain = 0
KMC4 201548Z 30008KT 09/M09 A30 RMK A01 T00851090  RH  028%=      5-min Rain = 0
KMC4 201549Z 31007KT 09/M09 A30 RMK A01 T00851086  RH  029%=      5-min Rain = 0
KMC4 201550Z 30008KT 09/M09 A30 RMK A01 T00861086  RH  029%=      5-min Rain = 0
KMC4 201551Z 31008KT 09/M09 A30 RMK A01 T00861087  RH  028%=      5-min Rain = 0
KMC4 201552Z 31009KT 08/M09 A30 RMK A01 T00841087  RH  029%=      5-min Rain = 0
KMC4 201553Z 31008KT 08/M09 A30 RMK A01 T00831089  RH  029%=      5-min Rain = 0
KMC4 201554Z 30009KT 08/M09 A30 RMK A01 T00811093  RH  028%=      5-min Rain = 0
KMC4 201555Z 31010KT 08/M09 A30 RMK A01 T00801092  RH  028%=      5-min Rain = 0
KMC4 201556Z 31009KT 08/M09 A30 RMK A01 T00791093  RH  028%=      5-min Rain = 0
KMC4 201557Z 31011KT 08/M09 A30 RMK A01 T00791091  RH  029%=      5-min Rain = 0
KMC4 201558Z 31009KT 08/M09 A30 RMK A01 T00811091  RH  029%=      5-min Rain = 0
KMC4 201559Z 31009KT 08/M09 A3001 RMK A01 T00821090  RH  029%=      5-min Rain = 0
KMC4 201600Z 31010KT 08/M09 A3001 RMK A01 T00831092  RH  028%=      5-min Rain = 0
KMC4 201601Z 31008KT 08/M09 A30 RMK A01 T00831090  RH  028%=      5-min Rain = 0
KMC4 201602Z 31009KT 08/M09 A30 RMK A01 T00841088  RH  029%=      5-min Rain = 0
KMC4 201603Z 32009KT 09/M09 A30 RMK A01 T00851091  RH  028%=      5-min Rain = 0
KMC4 201604Z 32008KT 09/M09 A30 RMK A01 T00861090  RH  028%=      5-min Rain = 0
KMC4 201605Z 32008KT 09/M09 A30 RMK A01 T00881086  RH  028%=      5-min Rain = 0
KMC4 201606Z 31007KT 09/M09 A30 RMK A01 T00901088  RH  027%=      5-min Rain = 0
KMC4 201607Z 32010KT 09/M09 A30 RMK A01 T00911087  RH  027%=      5-min Rain = 0
KMC4 201608Z 31009KT 09/M09 A30 RMK A01 T00911092  RH  027%=      5-min Rain = 0
KMC4 201609Z 30008KT 09/M09 A30 RMK A01 T00901092  RH  027%=      5-min Rain = 0
KMC4 201610Z 30008KT 09/M10 A30 RMK A01 T00901095  RH  026%=      5-min Rain = 0
KMC4 201611Z 30008KT 09/M09 A30 RMK A01 T00901092  RH  027%=      5-min Rain = 0
KMC4 201612Z 30009KT 09/M09 A30 RMK A01 T00921091  RH  027%=      5-min Rain = 0
KMC4 201613Z 30008KT 09/M09 A30 RMK A01 T00921091  RH  026%=      5-min Rain = 0
KMC4 201614Z 30009KT 09/M09 A30 RMK A01 T00941090  RH  026%=      5-min Rain = 0
KMC4 201615Z 30009KT 10/M09 A30 RMK A01 T00951094  RH  025%=      5-min Rain = 0
KMC4 201616Z 31008KT 10/M09 A30 RMK A01 T00951094  RH  025%=      5-min Rain = 0
KMC4 201617Z 31010KT 10/M09 A30 RMK A01 T00961093  RH  025%=      5-min Rain = 0
KMC4 201618Z 29010KT 10/M10 A30 RMK A01 T00971095  RH  025%=      5-min Rain = 0
KMC4 201619Z 30010KT 10/M10 A30 RMK A01 T00961097  RH  025%=      5-min Rain = 0
KMC4 201620Z 29008KT 10/M10 A30 RMK A01 T00951097  RH  025%=      5-min Rain = 0
KMC4 201621Z 30009KT 10/M10 A30 RMK A01 T00951096  RH  025%=      5-min Rain = 0
KMC4 201622Z 30007KT 10/M09 A3001 RMK A01 T00961093  RH  025%=      5-min Rain = 0
KMC4 201623Z 30007KT 10/M09 A3001 RMK A01 T00981093  RH  025%=      5-min Rain = 0
KMC4 201624Z 31008KT 10/M09 A30 RMK A01 T00981092  RH  025%=      5-min Rain = 0
KMC4 201625Z 31010KT 10/M09 A30 RMK A01 T00991093  RH  025%=      5-min Rain = 0
KMC4 201626Z 30009KT 10/M10 A30 RMK A01 T00991096  RH  024%=      5-min Rain = 0
KMC4 201627Z 30008KT 10/M10 A30 RMK A01 T00971097  RH  024%=      5-min Rain = 0
KMC4 201628Z 29007KT 10/M09 A30 RMK A01 T00981093  RH  025%=      5-min Rain = 0
KMC4 201629Z 29007KT 10/M10 A30 RMK A01 T00991096  RH  024%=      5-min Rain = 0
KMC4 201630Z 29006KT 10/M10 A30 RMK A01 T00991095  RH  024%=      5-min Rain = 0
KMC4 201631Z 29008KT 10/M09 A30 RMK A01 T00991093  RH  025%=      5-min Rain = 0
KMC4 201632Z 27009KT 10/M09 A3001 RMK A01 T01001093  RH  025%=      5-min Rain = 0
KMC4 201633Z 28008KT 10/M10 A3001 RMK A01 T01001097  RH  024%=      5-min Rain = 0
KMC4 201634Z 27008KT 10/M10 A3001 RMK A01 T00981097  RH  024%=      5-min Rain = 0
KMC4 201635Z 30010KT 10/M09 A3001 RMK A01 T00991093  RH  025%=      5-min Rain = 0
KMC4 201636Z 28006KT 10/M09 A3001 RMK A01 T01011092  RH  025%=      5-min Rain = 0
KMC4 201637Z 29009KT 10/M09 A3001 RMK A01 T01021090  RH  025%=      5-min Rain = 0
KMC4 201638Z 29011KT 10/M09 A30 RMK A01 T01031094  RH  024%=      5-min Rain = 0
KMC4 201639Z 30010KT 10/M10 A30 RMK A01 T01021095  RH  024%=      5-min Rain = 0
KMC4 201640Z 28007KT 10/M09 A30 RMK A01 T01021093  RH  024%=      5-min Rain = 0
KMC4 201641Z 29008KT 10/M09 A30 RMK A01 T01031093  RH  024%=      5-min Rain = 0
KMC4 201642Z 30008KT 10/M09 A30 RMK A01 T01031092  RH  024%=      5-min Rain = 0
KMC4 201643Z 31011KT 10/M09 A30 RMK A01 T01041091  RH  024%=      5-min Rain = 0
KMC4 201644Z 30010KT 10/M09 A30 RMK A01 T01041093  RH  024%=      5-min Rain = 0
KMC4 201645Z 30009KT 10/M10 A30 RMK A01 T01021096  RH  024%=      5-min Rain = 0
KMC4 201646Z 29011KT 10/M10 A30 RMK A01 T01021095  RH  024%=      5-min Rain = 0
KMC4 201647Z 29011KT 10/M10 A30 RMK A01 T01011097  RH  024%=      5-min Rain = 0
KMC4 201648Z 28010KT 10/M10 A30 RMK A01 T01001096  RH  024%=      5-min Rain = 0
KMC4 201649Z 27011KT 10/M10 A30 RMK A01 T01001095  RH  024%=      5-min Rain = 0
KMC4 201650Z 29009KT 10/M10 A30 RMK A01 T01001096  RH  024%=      5-min Rain = 0
KMC4 201651Z 28009KT 10/M10 A30 RMK A01 T00991096  RH  024%=      5-min Rain = 0
KMC4 201652Z 28011KT 10/M10 A30 RMK A01 T00991097  RH  024%=      5-min Rain = 0
KMC4 201653Z 28009KT 10/M10 A30 RMK A01 T00981099  RH  024%=      5-min Rain = 0
KMC4 201654Z 29009KT 10/M10 A30 RMK A01 T00981095  RH  025%=      5-min Rain = 0
KMC4 201655Z 29012KT 10/M09 A30 RMK A01 T00991093  RH  025%=      5-min Rain = 0
KMC4 201656Z 28010KT 10/M10 A30 RMK A01 T01001095  RH  024%=      5-min Rain = 0
KMC4 201657Z 30009KT 10/M09 A30 RMK A01 T01001091  RH  025%=      5-min Rain = 0
KMC4 201658Z 28010KT 10/M09 A30 RMK A01 T01021091  RH  025%=      5-min Rain = 0
KMC4 201659Z 29008KT 10/M10 A30 RMK A01 T01021095  RH  024%=      5-min Rain = 0
KMC4 201700Z 28009KT 10/M09 A30 RMK A01 T01011094  RH  024%=      5-min Rain = 0
KMC4 201701Z 29011KT 10/M09 A30 RMK A01 T01011094  RH  024%=      5-min Rain = 0
KMC4 201702Z 28010KT 10/M09 A30 RMK A01 T01011094  RH  024%=      5-min Rain = 0
KMC4 201703Z 28010KT 10/M09 A30 RMK A01 T01011093  RH  024%=      5-min Rain = 0
KMC4 201704Z 28010KT 10/M09 A30 RMK A01 T01021093  RH  024%=      5-min Rain = 0
KMC4 201705Z 28009KT 10/M10 A30 RMK A01 T01001096  RH  024%=      5-min Rain = 0
KMC4 201706Z 28010KT 10/M09 A30 RMK A01 T01001093  RH  025%=      5-min Rain = 0
KMC4 201707Z 29011KT 10/M09 A30 RMK A01 T01011093  RH  024%=      5-min Rain = 0
KMC4 201708Z 28010KT 10/M10 A30 RMK A01 T01001095  RH  024%=      5-min Rain = 0
KMC4 201709Z 27010KT 10/M10 A30 RMK A01 T01001095  RH  024%=      5-min Rain = 0
KMC4 201710Z 29008KT 10/M09 A30 RMK A01 T01001093  RH  025%=      5-min Rain = 0
KMC4 201711Z 29010KT 10/M09 A30 RMK A01 T01021090  RH  025%=      5-min Rain = 0
KMC4 201712Z 27009KT 10/M09 A30 RMK A01 T01031092  RH  024%=      5-min Rain = 0
KMC4 201713Z 28010KT 10/M09 A30 RMK A01 T01021093  RH  024%=      5-min Rain = 0
KMC4 201714Z 29008KT 10/M10 A30 RMK A01 T01011095  RH  024%=      5-min Rain = 0
KMC4 201715Z 27010KT 10/M09 A30 RMK A01 T01001093  RH  025%=      5-min Rain = 0
KMC4 201716Z 26009KT 10/M09 A30 RMK A01 T01011091  RH  025%=      5-min Rain = 0
KMC4 201717Z 29007KT 10/M09 A30 RMK A01 T01021092  RH  024%=      5-min Rain = 0
KMC4 201718Z 30007KT 10/M09 A30 RMK A01 T01031090  RH  025%=      5-min Rain = 0
KMC4 201719Z 29009KT 10/M09 A30 RMK A01 T01041091  RH  024%=      5-min Rain = 0
KMC4 201720Z 27008KT 10/M09 A30 RMK A01 T01041091  RH  024%=      5-min Rain = 0
KMC4 201721Z 28010KT 11/M09 A30 RMK A01 T01051090  RH  025%=      5-min Rain = 0
KMC4 201722Z 29011KT 11/M09 A30 RMK A01 T01051091  RH  024%=      5-min Rain = 0
KMC4 201723Z 29010KT 10/M09 A30 RMK A01 T01041093  RH  024%=      5-min Rain = 0
KMC4 201724Z 30009KT 10/M09 A30 RMK A01 T01031092  RH  024%=      5-min Rain = 0
KMC4 201725Z 29009KT 10/M09 A30 RMK A01 T01031092  RH  024%=      5-min Rain = 0
KMC4 201726Z 29012KT 10/M09 A30 RMK A01 T01021093  RH  024%=      5-min Rain = 0
KMC4 201727Z 29010KT 10/M09 A2999 RMK A01 T01021094  RH  024%=      5-min Rain = 0
KMC4 201728Z 30008KT 10/M09 A30 RMK A01 T01021090  RH  025%=      5-min Rain = 0
KMC4 201729Z 30008KT 10/M09 A30 RMK A01 T01031090  RH  025%=      5-min Rain = 0
KMC4 201730Z 28006KT 10/M09 A30 RMK A01 T01031091  RH  025%=      5-min Rain = 0
KMC4 201731Z 29005KT 10/M09 A30 RMK A01 T01031088  RH  025%=      5-min Rain = 0
KMC4 201732Z 29007KT 10/M09 A30 RMK A01 T01041088  RH  025%=      5-min Rain = 0
KMC4 201733Z 30009KT 10/M09 A30 RMK A01 T01041092  RH  024%=      5-min Rain = 0
KMC4 201734Z 29010KT 10/M09 A30 RMK A01 T01021093  RH  024%=      5-min Rain = 0
KMC4 201735Z 28010KT 10/M09 A30 RMK A01 T01011094  RH  024%=      5-min Rain = 0
KMC4 201736Z 28010KT 10/M09 A30 RMK A01 T01001093  RH  025%=      5-min Rain = 0
KMC4 201737Z 29010KT 10/M09 A30 RMK A01 T01011092  RH  025%=      5-min Rain = 0
KMC4 201738Z 29007KT 10/M09 A30 RMK A01 T01011093  RH  025%=      5-min Rain = 0
KMC4 201739Z 27008KT 10/M09 A30 RMK A01 T01001094  RH  025%=      5-min Rain = 0
KMC4 201740Z 27006KT 10/M09 A30 RMK A01 T01011093  RH  025%=      5-min Rain = 0
KMC4 201741Z 28006KT 10/M09 A30 RMK A01 T01011093  RH  025%=      5-min Rain = 0
KMC4 201742Z 28006KT 10/M09 A30 RMK A01 T01011092  RH  025%=      5-min Rain = 0
KMC4 201743Z 29009KT 10/M09 A30 RMK A01 T01011091  RH  025%=      5-min Rain = 0
KMC4 201744Z 27007KT 10/M09 A30 RMK A01 T01011094  RH  024%=      5-min Rain = 0
KMC4 201745Z 26005KT 10/M10 A30 RMK A01 T01001096  RH  024%=      5-min Rain = 0
KMC4 201746Z 27008KT 10/M09 A30 RMK A01 T01001093  RH  025%=      5-min Rain = 0
KMC4 201747Z 27006KT 10/M09 A30 RMK A01 T01021091  RH  025%=      5-min Rain = 0
KMC4 201748Z 30008KT 10/M09 A30 RMK A01 T01041091  RH  025%=      5-min Rain = 0
KMC4 201749Z 27009KT 11/M09 A30 RMK A01 T01051090  RH  024%=      5-min Rain = 0
KMC4 201750Z 28008KT 11/M09 A30 RMK A01 T01051093  RH  024%=      5-min Rain = 0
KMC4 201751Z 28008KT 10/M09 A30 RMK A01 T01041094  RH  024%=      5-min Rain = 0
KMC4 201752Z 28009KT 10/M09 A30 RMK A01 T01041092  RH  024%=      5-min Rain = 0
KMC4 201753Z 29008KT 10/M09 A30 RMK A01 T01041093  RH  024%=      5-min Rain = 0
KMC4 201754Z 28006KT 10/M09 A30 RMK A01 T01041092  RH  024%=      5-min Rain = 0
KMC4 201755Z 29009KT 10/M09 A30 RMK A01 T01041092  RH  024%=      5-min Rain = 0
KMC4 201756Z 30008KT 11/M09 A30 RMK A01 T01051091  RH  024%=      5-min Rain = 0
KMC4 201757Z 27007KT 11/M09 A2999 RMK A01 T01051092  RH  024%=      5-min Rain = 0
KMC4 201758Z 28007KT 11/M09 A2999 RMK A01 T01061090  RH  024%=      5-min Rain = 0
KMC4 201759Z 29004KT 11/M09 A30 RMK A01 T01061091  RH  024%=      5-min Rain = 0
KMC4 201800Z 27005KT 11/M09 A30 RMK A01 T01061091  RH  024%=      5-min Rain = 0
KMC4 201801Z 31003KT 11/M09 A30 RMK A01 T01071091  RH  024%=      5-min Rain = 0
KMC4 201802Z 29005KT 11/M09 A30 RMK A01 T01071090  RH  024%=      5-min Rain = 0
KMC4 201803Z 30004KT 11/M09 A2999 RMK A01 T01081089  RH  024%=      5-min Rain = 0
KMC4 201804Z 28005KT 11/M09 A2999 RMK A01 T01101087  RH  024%=      5-min Rain = 0
KMC4 201805Z 25006KT 11/M08 A2999 RMK A01 T01111083  RH  025%=      5-min Rain = 0
KMC4 201806Z 22007KT 11/M08 A2999 RMK A01 T01141083  RH  024%=      5-min Rain = 0
KMC4 201807Z 20004KT 11/M09 A2999 RMK A01 T01121091  RH  023%=      5-min Rain = 0
KMC4 201808Z 26002KT 11/M09 A2999 RMK A01 T01101093  RH  023%=      5-min Rain = 0
KMC4 201809Z 28002KT 11/M09 A2999 RMK A01 T01091089  RH  024%=      5-min Rain = 0
KMC4 201810Z 25006KT 11/M09 A2998 RMK A01 T01101087  RH  024%=      5-min Rain = 0
KMC4 201811Z 25007KT 11/M09 A2998 RMK A01 T01111088  RH  024%=      5-min Rain = 0
KMC4 201812Z 24007KT 11/M09 A2998 RMK A01 T01111087  RH  024%=      5-min Rain = 0
KMC4 201813Z 22007KT 11/M09 A2998 RMK A01 T01101090  RH  024%=      5-min Rain = 0
KMC4 201814Z 23004KT 11/M09 A2998 RMK A01 T01081092  RH  024%=      5-min Rain = 0
KMC4 201815Z 24005KT 11/M09 A2998 RMK A01 T01081090  RH  024%=      5-min Rain = 0
KMC4 201816Z 23003KT 11/M09 A2998 RMK A01 T01071092  RH  024%=      5-min Rain = 0
KMC4 201817Z 25005KT 11/M09 A2998 RMK A01 T01071089  RH  024%=      5-min Rain = 0
KMC4 201818Z 25006KT 11/M09 A2998 RMK A01 T01081086  RH  025%=      5-min Rain = 0
KMC4 201819Z 27004KT 11/M09 A2998 RMK A01 T01091090  RH  024%=      5-min Rain = 0
KMC4 201820Z 27006KT 11/M09 A2998 RMK A01 T01091089  RH  024%=      5-min Rain = 0
KMC4 201821Z 26006KT 11/M09 A2998 RMK A01 T01101090  RH  024%=      5-min Rain = 0
KMC4 201822Z 26007KT 11/M09 A2997 RMK A01 T01101086  RH  024%=      5-min Rain = 0
KMC4 201823Z 26008KT 11/M09 A2997 RMK A01 T01121086  RH  024%=      5-min Rain = 0
KMC4 201824Z 26006KT 11/M09 A2998 RMK A01 T01121088  RH  024%=      5-min Rain = 0
KMC4 201825Z 26006KT 11/M09 A2998 RMK A01 T01111089  RH  024%=      5-min Rain = 0
KMC4 201826Z 27007KT 11/M08 A2997 RMK A01 T01121083  RH  025%=      5-min Rain = 0
KMC4 201827Z 28004KT 11/M09 A2998 RMK A01 T01141087  RH  024%=      5-min Rain = 0
KMC4 201828Z 25005KT 11/M09 A2998 RMK A01 T01141087  RH  024%=      5-min Rain = 0
KMC4 201829Z 26004KT 11/M09 A2998 RMK A01 T01141085  RH  024%=      5-min Rain = 0
KMC4 201830Z 25007KT 12/M08 A2998 RMK A01 T01151084  RH  024%=      5-min Rain = 0
KMC4 201831Z 25007KT 12/M09 A2998 RMK A01 T01151085  RH  024%=      5-min Rain = 0
KMC4 201832Z 25004KT 12/M09 A2998 RMK A01 T01151085  RH  024%=      5-min Rain = 0
KMC4 201833Z 29003KT 12/M09 A2997 RMK A01 T01161085  RH  024%=      5-min Rain = 0
KMC4 201834Z 27005KT 12/M09 A2997 RMK A01 T01171085  RH  023%=      5-min Rain = 0
KMC4 201835Z 23006KT 12/M08 A2998 RMK A01 T01181084  RH  024%=      5-min Rain = 0
KMC4 201836Z 23006KT 12/M08 A2998 RMK A01 T01191084  RH  023%=      5-min Rain = 0
KMC4 201837Z 22005KT 12/M09 A2998 RMK A01 T01181089  RH  023%=      5-min Rain = 0
KMC4 201838Z 23004KT 12/M09 A2998 RMK A01 T01161087  RH  023%=      5-min Rain = 0
KMC4 201839Z 23002KT 12/M09 A2997 RMK A01 T01151089  RH  023%=      5-min Rain = 0
KMC4 201840Z 24003KT 12/M09 A2997 RMK A01 T01161085  RH  024%=      5-min Rain = 0
KMC4 201841Z 25003KT 12/M09 A2997 RMK A01 T01171088  RH  023%=      5-min Rain = 0
KMC4 201842Z 28005KT 12/M09 A2997 RMK A01 T01171088  RH  023%=      5-min Rain = 0
KMC4 201843Z 28004KT 12/M09 A2997 RMK A01 T01181086  RH  023%=      5-min Rain = 0
KMC4 201844Z 28005KT 12/M08 A2997 RMK A01 T01191084  RH  023%=      5-min Rain = 0
KMC4 201845Z 28008KT 12/M09 A2997 RMK A01 T01191085  RH  023%=      5-min Rain = 0
KMC4 201846Z 27007KT 12/M09 A2997 RMK A01 T01181086  RH  023%=      5-min Rain = 0
KMC4 201847Z 29010KT 12/M08 A2996 RMK A01 T01181084  RH  023%=      5-min Rain = 0
KMC4 201848Z 30008KT 12/M08 A2996 RMK A01 T01211078  RH  024%=      5-min Rain = 0
KMC4 201849Z 28006KT 13/M08 A2996 RMK A01 T01251078  RH  023%=      5-min Rain = 0
KMC4 201850Z 25006KT 12/M09 A2996 RMK A01 T01231085  RH  023%=      5-min Rain = 0
KMC4 201851Z 22007KT 12/M08 A2996 RMK A01 T01221083  RH  023%=      5-min Rain = 0
KMC4 201852Z 22006KT 12/M09 A2996 RMK A01 T01201088  RH  022%=      5-min Rain = 0
KMC4 201853Z 22002KT 12/M09 A2996 RMK A01 T01171090  RH  023%=      5-min Rain = 0
KMC4 201854Z 22003KT 12/M09 A2996 RMK A01 T01161088  RH  023%=      5-min Rain = 0
KMC4 201855Z 24005KT 12/M08 A2996 RMK A01 T01181083  RH  024%=      5-min Rain = 0
KMC4 201856Z 24004KT 12/M09 A2996 RMK A01 T01201085  RH  023%=      5-min Rain = 0
KMC4 201857Z 23007KT 12/M09 A2996 RMK A01 T01201085  RH  023%=      5-min Rain = 0
KMC4 201858Z 23006KT 12/M08 A2996 RMK A01 T01221084  RH  023%=      5-min Rain = 0
KMC4 201859Z 23008KT 12/M09 A2996 RMK A01 T01221086  RH  022%=      5-min Rain = 0
KMC4 201900Z 23007KT 12/M09 A2996 RMK A01 T01221086  RH  023%=      5-min Rain = 0
KMC4 201901Z 22007KT 12/M08 A2996 RMK A01 T01231084  RH  023%=      5-min Rain = 0
KMC4 201902Z 23005KT 12/M09 A2996 RMK A01 T01241085  RH  022%=      5-min Rain = 0
KMC4 201903Z 23002KT 12/M09 A2996 RMK A01 T01221090  RH  022%=      5-min Rain = 0
KMC4 201904Z 23000KT 12/M09 A2996 RMK A01 T01211086  RH  023%=      5-min Rain = 0
KMC4 201905Z 25005KT 12/M08 A2996 RMK A01 T01221083  RH  023%=      5-min Rain = 0
KMC4 201906Z 26005KT 12/M09 A2995 RMK A01 T01211085  RH  023%=      5-min Rain = 0
KMC4 201907Z 24005KT 12/M08 A2995 RMK A01 T01221083  RH  023%=      5-min Rain = 0
KMC4 201908Z 26005KT 12/M08 A2995 RMK A01 T01241082  RH  023%=      5-min Rain = 0
KMC4 201909Z 26004KT 13/M08 A2995 RMK A01 T01251084  RH  022%=      5-min Rain = 0
KMC4 201910Z 26003KT 12/M09 A2995 RMK A01 T01241085  RH  022%=      5-min Rain = 0
KMC4 201911Z 21007KT 12/M08 A2995 RMK A01 T01241082  RH  023%=      5-min Rain = 0
KMC4 201912Z 19006KT 13/M08 A2995 RMK A01 T01261084  RH  022%=      5-min Rain = 0
KMC4 201913Z 16002KT 12/M09 A2995 RMK A01 T01241088  RH  022%=      5-min Rain = 0
KMC4 201914Z 14002KT 12/M09 A2995 RMK A01 T01241086  RH  022%=      5-min Rain = 0
KMC4 201915Z 12001KT 13/M08 A2995 RMK A01 T01251083  RH  023%=      5-min Rain = 0
KMC4 201916Z 14001KT 13/M09 A2995 RMK A01 T01281085  RH  022%=      5-min Rain = 0
KMC4 201917Z 19006KT 13/M08 A2995 RMK A01 T01301082  RH  022%=      5-min Rain = 0
KMC4 201918Z 21007KT 13/M08 A2995 RMK A01 T01301084  RH  022%=      5-min Rain = 0
KMC4 201919Z 18005KT 13/M09 A2995 RMK A01 T01281086  RH  022%=      5-min Rain = 0
KMC4 201920Z 13002KT 13/M09 A2995 RMK A01 T01261090  RH  021%=      5-min Rain = 0
KMC4 201921Z 19007KT 13/M09 A2995 RMK A01 T01261086  RH  022%=      5-min Rain = 0
KMC4 201922Z 21010KT 13/M09 A2995 RMK A01 T01281085  RH  022%=      5-min Rain = 0
KMC4 201923Z 19010KT 13/M09 A2994 RMK A01 T01281085  RH  022%=      5-min Rain = 0
KMC4 201924Z 21009KT 13/M09 A2994 RMK A01 T01281085  RH  022%=      5-min Rain = 0
KMC4 201925Z 22008KT 13/M09 A2994 RMK A01 T01271087  RH  022%=      5-min Rain = 0
KMC4 201926Z 26005KT 13/M09 A2994 RMK A01 T01251088  RH  022%=      5-min Rain = 0
KMC4 201927Z 24006KT 12/M09 A2994 RMK A01 T01241085  RH  022%=      5-min Rain = 0
KMC4 201928Z 24008KT 13/M08 A2994 RMK A01 T01261083  RH  023%=      5-min Rain = 0
KMC4 201929Z 22007KT 13/M08 A2994 RMK A01 T01271083  RH  022%=      5-min Rain = 0
KMC4 201930Z 21010KT 13/M08 A2994 RMK A01 T01291083  RH  022%=      5-min Rain = 0
KMC4 201931Z 21006KT 13/M09 A2994 RMK A01 T01291087  RH  021%=      5-min Rain = 0
KMC4 201932Z 25004KT 13/M09 A2994 RMK A01 T01271087  RH  022%=      5-min Rain = 0
KMC4 201933Z 23001KT 13/M09 A2994 RMK A01 T01271085  RH  022%=      5-min Rain = 0
KMC4 201934Z 19003KT 13/M09 A2994 RMK A01 T01271086  RH  022%=      5-min Rain = 0
KMC4 201935Z 19005KT 13/M09 A2994 RMK A01 T01271087  RH  022%=      5-min Rain = 0
KMC4 201936Z 21005KT 13/M08 A2994 RMK A01 T01271084  RH  022%=      5-min Rain = 0
KMC4 201937Z 22006KT 13/M09 A2994 RMK A01 T01271085  RH  022%=      5-min Rain = 0
KMC4 201938Z 22006KT 13/M08 A2994 RMK A01 T01281084  RH  022%=      5-min Rain = 0
KMC4 201939Z 22004KT 13/M08 A2993 RMK A01 T01281084  RH  022%=      5-min Rain = 0
KMC4 201940Z 22005KT 13/M08 A2993 RMK A01 T01291082  RH  022%=      5-min Rain = 0
KMC4 201941Z 24009KT 13/M08 A2993 RMK A01 T01301083  RH  022%=      5-min Rain = 0
KMC4 201942Z 25007KT 13/M08 A2993 RMK A01 T01301082  RH  022%=      5-min Rain = 0
KMC4 201943Z 24006KT 13/M08 A2993 RMK A01 T01311080  RH  022%=      5-min Rain = 0
KMC4 201944Z 23005KT 13/M08 A2993 RMK A01 T01311081  RH  022%=      5-min Rain = 0
KMC4 201945Z 24008KT 13/M08 A2993 RMK A01 T01321081  RH  022%=      5-min Rain = 0
KMC4 201946Z 25008KT 13/M08 A2993 RMK A01 T01331084  RH  021%=      5-min Rain = 0
KMC4 201947Z 23005KT 13/M09 A2993 RMK A01 T01291089  RH  021%=      5-min Rain = 0
KMC4 201948Z 23004KT 13/M09 A2993 RMK A01 T01271090  RH  021%=      5-min Rain = 0
KMC4 201949Z 23004KT 13/M09 A2993 RMK A01 T01271088  RH  021%=      5-min Rain = 0
KMC4 201950Z 24005KT 13/M09 A2993 RMK A01 T01271087  RH  022%=      5-min Rain = 0
KMC4 201951Z 26008KT 13/M08 A2993 RMK A01 T01291080  RH  023%=      5-min Rain = 0
KMC4 201952Z 27007KT 13/M08 A2992 RMK A01 T01321081  RH  022%=      5-min Rain = 0
KMC4 201953Z 27005KT 13/M08 A2992 RMK A01 T01321084  RH  021%=      5-min Rain = 0
KMC4 201954Z 29006KT 13/M08 A2992 RMK A01 T01321083  RH  022%=      5-min Rain = 0
KMC4 201955Z 30004KT 13/M08 A2992 RMK A01 T01341078  RH  022%=      5-min Rain = 0
KMC4 201956Z 28004KT 14/M08 A2992 RMK A01 T01351080  RH  022%=      5-min Rain = 0
KMC4 201957Z 26003KT 13/M08 A2992 RMK A01 T01341080  RH  022%=      5-min Rain = 0
KMC4 201958Z 26002KT 13/M08 A2992 RMK A01 T01341084  RH  021%=      5-min Rain = 0
KMC4 201959Z 27003G9KT 14/M08 A2992 RMK A01 T01351081  RH  022%=      5-min Rain = 0
KMC4 202000Z 23008KT 14/M08 A2992 RMK A01 T01381076  RH  022%=      5-min Rain = 0
KMC4 202001Z 26008KT 14/M08 A2992 RMK A01 T01391080  RH  021%=      5-min Rain = 0
KMC4 202002Z 27008KT 14/M08 A2992 RMK A01 T01381083  RH  021%=      5-min Rain = 0
KMC4 202003Z 26005KT 14/M08 A2992 RMK A01 T01361082  RH  021%=      5-min Rain = 0
KMC4 202004Z 27006KT 14/M08 A2991 RMK A01 T01351080  RH  022%=      5-min Rain = 0
KMC4 202005Z 27006KT 14/M08 A2991 RMK A01 T01361081  RH  021%=      5-min Rain = 0
KMC4 202006Z 24008KT 14/M08 A2991 RMK A01 T01371080  RH  021%=      5-min Rain = 0
KMC4 202007Z 24008KT 14/M08 A2991 RMK A01 T01381083  RH  021%=      5-min Rain = 0
KMC4 202008Z 23006KT 14/M08 A2991 RMK A01 T01361084  RH  021%=      5-min Rain = 0
KMC4 202009Z 23006KT 14/M08 A2991 RMK A01 T01361082  RH  021%=      5-min Rain = 0
KMC4 202010Z 24002KT 14/M08 A2991 RMK A01 T01371083  RH  021%=      5-min Rain = 0
KMC4 202011Z 21005KT 14/M08 A2991 RMK A01 T01371080  RH  021%=      5-min Rain = 0
KMC4 202012Z 22008KT 14/M08 A2991 RMK A01 T01391079  RH  021%=      5-min Rain = 0
KMC4 202013Z 22005KT 14/M08 A2991 RMK A01 T01381083  RH  021%=      5-min Rain = 0
KMC4 202014Z 22007KT 14/M08 A2991 RMK A01 T01371080  RH  021%=      5-min Rain = 0
KMC4 202015Z 19005KT 14/M08 A2991 RMK A01 T01381080  RH  021%=      5-min Rain = 0
KMC4 202016Z 20006KT 14/M08 A2991 RMK A01 T01411075  RH  022%=      5-min Rain = 0
KMC4 202017Z 19005KT 14/M08 A2991 RMK A01 T01421080  RH  021%=      5-min Rain = 0
KMC4 202018Z 23006KT 14/M07 A2991 RMK A01 T01431074  RH  022%=      5-min Rain = 0
KMC4 202019Z 21008KT 14/M08 A2991 RMK A01 T01441078  RH  021%=      5-min Rain = 0
KMC4 202020Z 22007KT 14/M08 A299 RMK A01 T01411081  RH  021%=      5-min Rain = 0
KMC4 202021Z 22004KT 14/M08 A299 RMK A01 T01391083  RH  021%=      5-min Rain = 0
KMC4 202022Z 23005KT 14/M08 A299 RMK A01 T01371084  RH  021%=      5-min Rain = 0
KMC4 202023Z 23004KT 14/M08 A299 RMK A01 T01361081  RH  021%=      5-min Rain = 0
KMC4 202024Z 19003KT 14/M08 A299 RMK A01 T01371080  RH  021%=      5-min Rain = 0
KMC4 202025Z 18002KT 14/M08 A299 RMK A01 T01371080  RH  021%=      5-min Rain = 0
KMC4 202026Z 24002KT 14/M08 A299 RMK A01 T01381080  RH  021%=      5-min Rain = 0
KMC4 202027Z 21004KT 14/M08 A299 RMK A01 T01391079  RH  021%=      5-min Rain = 0
KMC4 202028Z 20003KT 14/M08 A299 RMK A01 T01401081  RH  021%=      5-min Rain = 0
KMC4 202029Z 17006KT 14/M08 A299 RMK A01 T01401078  RH  021%=      5-min Rain = 0
KMC4 202030Z 18006KT 14/M08 A299 RMK A01 T01411076  RH  022%=      5-min Rain = 0
KMC4 202031Z 19006KT 14/M08 A299 RMK A01 T01431075  RH  021%=      5-min Rain = 0
KMC4 202032Z 15007KT 14/M08 A299 RMK A01 T01431077  RH  021%=      5-min Rain = 0
KMC4 202033Z 14007KT 14/M08 A299 RMK A01 T01421077  RH  021%=      5-min Rain = 0
KMC4 202034Z 22006KT 14/M07 A2989 RMK A01 T01431074  RH  022%=      5-min Rain = 0
KMC4 202035Z 25005KT 14/M08 A2989 RMK A01 T01441076  RH  021%=      5-min Rain = 0
KMC4 202036Z 21003KT 14/M08 A2989 RMK A01 T01421078  RH  021%=      5-min Rain = 0
KMC4 202037Z 26001KT 14/M08 A2989 RMK A01 T01411081  RH  021%=      5-min Rain = 0
KMC4 202038Z 27003KT 14/M08 A2989 RMK A01 T01411075  RH  022%=      5-min Rain = 0
KMC4 202039Z 26004KT 14/M07 A2989 RMK A01 T01411073  RH  022%=      5-min Rain = 0
KMC4 202040Z 25003KT 14/M08 A2989 RMK A01 T01411077  RH  021%=      5-min Rain = 0
KMC4 202041Z 24002KT 14/M08 A2989 RMK A01 T01401080  RH  021%=      5-min Rain = 0
KMC4 202042Z 26002KT 14/M08 A2989 RMK A01 T01391078  RH  021%=      5-min Rain = 0
KMC4 202043Z 23003KT 14/M07 A2989 RMK A01 T01401074  RH  022%=      5-min Rain = 0
KMC4 202044Z 22006KT 14/M08 A2989 RMK A01 T01401077  RH  021%=      5-min Rain = 0
KMC4 202045Z 23006KT 14/M08 A2989 RMK A01 T01391079  RH  021%=      5-min Rain = 0
KMC4 202046Z 24005KT 14/M08 A2989 RMK A01 T01381078  RH  022%=      5-min Rain = 0
KMC4 202047Z 20008KT 14/M08 A2989 RMK A01 T01371077  RH  022%=      5-min Rain = 0
KMC4 202048Z 19007KT 14/M08 A2989 RMK A01 T01371080  RH  021%=      5-min Rain = 0
KMC4 202049Z 20005KT 14/M08 A2989 RMK A01 T01361082  RH  021%=      5-min Rain = 0
KMC4 202050Z 19005KT 14/M08 A2989 RMK A01 T01351079  RH  022%=      5-min Rain = 0
KMC4 202051Z 20006KT 14/M08 A2989 RMK A01 T01351080  RH  022%=      5-min Rain = 0
KMC4 202052Z 20004KT 14/M08 A2989 RMK A01 T01351081  RH  022%=      5-min Rain = 0
KMC4 202053Z 17004KT 14/M08 A2989 RMK A01 T01351079  RH  022%=      5-min Rain = 0
KMC4 202054Z 18004KT 14/M08 A2989 RMK A01 T01351079  RH  022%=      5-min Rain = 0
KMC4 202055Z 21003KT 14/M08 A2989 RMK A01 T01351080  RH  022%=      5-min Rain = 0
KMC4 202056Z 21005KT 14/M07 A2989 RMK A01 T01371073  RH  023%=      5-min Rain = 0
KMC4 202057Z 24008KT 14/M08 A2989 RMK A01 T01381075  RH  022%=      5-min Rain = 0
KMC4 202058Z 23007KT 14/M08 A2989 RMK A01 T01391075  RH  022%=      5-min Rain = 0
KMC4 202059Z 25005KT 14/M08 A2989 RMK A01 T01391078  RH  022%=      5-min Rain = 0
KMC4 202100Z 26005KT 14/M08 A2989 RMK A01 T01371077  RH  022%=      5-min Rain = 0
KMC4 202101Z 24003KT 14/M08 A2989 RMK A01 T01361077  RH  022%=      5-min Rain = 0
KMC4 202102Z 22006KT 14/M08 A2989 RMK A01 T01371075  RH  022%=      5-min Rain = 0
KMC4 202103Z 21007KT 14/M07 A2989 RMK A01 T01391074  RH  022%=      5-min Rain = 0
KMC4 202104Z 21007KT 14/M08 A2989 RMK A01 T01401075  RH  022%=      5-min Rain = 0
KMC4 202105Z 22005KT 14/M07 A2989 RMK A01 T01411074  RH  022%=      5-min Rain = 0
KMC4 202106Z 21005KT 14/M07 A2989 RMK A01 T01421073  RH  022%=      5-min Rain = 0
KMC4 202107Z 18005KT 14/M07 A2989 RMK A01 T01431074  RH  022%=      5-min Rain = 0
KMC4 202108Z 17006KT 14/M08 A2988 RMK A01 T01421076  RH  021%=      5-min Rain = 0
KMC4 202109Z 18004KT 14/M08 A2988 RMK A01 T01401076  RH  022%=      5-min Rain = 0
KMC4 202110Z 22005KT 14/M08 A2988 RMK A01 T01411075  RH  022%=      5-min Rain = 0
KMC4 202111Z 22003KT 14/M08 A2988 RMK A01 T01401077  RH  022%=      5-min Rain = 0
KMC4 202112Z 20004KT 14/M07 A2988 RMK A01 T01391074  RH  022%=      5-min Rain = 0
KMC4 202113Z 18002KT 14/M08 A2988 RMK A01 T01391077  RH  022%=      5-min Rain = 0
KMC4 202114Z 19002KT 14/M08 A2988 RMK A01 T01391078  RH  022%=      5-min Rain = 0
KMC4 202115Z 19004KT 14/M08 A2988 RMK A01 T01401075  RH  022%=      5-min Rain = 0
KMC4 202116Z 17003KT 14/M08 A2988 RMK A01 T01411075  RH  022%=      5-min Rain = 0
KMC4 202117Z 14003KT 14/M08 A2988 RMK A01 T01431076  RH  021%=      5-min Rain = 0
KMC4 202118Z 18004KT 14/M08 A2988 RMK A01 T01441076  RH  021%=      5-min Rain = 0
KMC4 202119Z 18005KT 14/M08 A2988 RMK A01 T01441075  RH  021%=      5-min Rain = 0
KMC4 202120Z 17005KT 14/M08 A2988 RMK A01 T01441077  RH  021%=      5-min Rain = 0
KMC4 202121Z 16005KT 14/M08 A2988 RMK A01 T01431075  RH  021%=      5-min Rain = 0
KMC4 202122Z 14004KT 14/M07 A2988 RMK A01 T01441074  RH  021%=      5-min Rain = 0
KMC4 202123Z 14003KT 15/M08 A2988 RMK A01 T01451075  RH  021%=      5-min Rain = 0
KMC4 202124Z 13001KT 15/M07 A2988 RMK A01 T01471074  RH  021%=      5-min Rain = 0
KMC4 202125Z 16000KT 15/M07 A2988 RMK A01 T01491071  RH  021%=      5-min Rain = 0
KMC4 202126Z 24001KT 15/M07 A2988 RMK A01 T01521069  RH  021%=      5-min Rain = 0
KMC4 202127Z 26000KT 16/M07 A2988 RMK A01 T01551070  RH  021%=      5-min Rain = 0
KMC4 202128Z 06001KT 16/M07 A2988 RMK A01 T01571072  RH  020%=      5-min Rain = 0
KMC4 202129Z 03002KT 16/M07 A2988 RMK A01 T01571068  RH  021%=      5-min Rain = 0
KMC4 202130Z 05000KT 15/M07 A2988 RMK A01 T01541074  RH  020%=      5-min Rain = 0
KMC4 202131Z 04000KT 15/M07 A2988 RMK A01 T01521072  RH  021%=      5-min Rain = 0
KMC4 202132Z 29000KT 15/M07 A2988 RMK A01 T01521070  RH  021%=      5-min Rain = 0
KMC4 202133Z 33002KT 16/M07 A2988 RMK A01 T01551065  RH  021%=      5-min Rain = 0
KMC4 202134Z 13004KT 16/M07 A2988 RMK A01 T01571066  RH  021%=      5-min Rain = 0
KMC4 202135Z 12003KT 16/M07 A2988 RMK A01 T01561073  RH  020%=      5-min Rain = 0
KMC4 202136Z 12001KT 15/M08 A2988 RMK A01 T01521076  RH  020%=      5-min Rain = 0
KMC4 202137Z 09001KT 15/M08 A2988 RMK A01 T01491077  RH  020%=      5-min Rain = 0
KMC4 202138Z 10003KT 15/M08 A2988 RMK A01 T01471075  RH  021%=      5-min Rain = 0
KMC4 202139Z 14004KT 15/M08 A2987 RMK A01 T01451076  RH  021%=      5-min Rain = 0
KMC4 202140Z 14005KT 15/M07 A2987 RMK A01 T01461074  RH  021%=      5-min Rain = 0
KMC4 202141Z 14007KT 15/M07 A2987 RMK A01 T01471073  RH  021%=      5-min Rain = 0
KMC4 202142Z 13007KT 15/M07 A2987 RMK A01 T01481074  RH  021%=      5-min Rain = 0
KMC4 202143Z 14005KT 15/M07 A2987 RMK A01 T01491074  RH  021%=      5-min Rain = 0
KMC4 202144Z 14006KT 15/M07 A2987 RMK A01 T01501071  RH  021%=      5-min Rain = 0
KMC4 202145Z 14007KT 15/M07 A2987 RMK A01 T01511073  RH  021%=      5-min Rain = 0
KMC4 202146Z 14008KT 15/M07 A2987 RMK A01 T01501070  RH  021%=      5-min Rain = 0
KMC4 202147Z 13007KT 15/M07 A2987 RMK A01 T01511071  RH  021%=      5-min Rain = 0
KMC4 202148Z 12006KT 15/M07 A2987 RMK A01 T01511071  RH  021%=      5-min Rain = 0
KMC4 202149Z 12006KT 15/M07 A2987 RMK A01 T01511071  RH  021%=      5-min Rain = 0
KMC4 202150Z 11005KT 15/M08 A2987 RMK A01 T01501075  RH  020%=      5-min Rain = 0
KMC4 202151Z 09004KT 15/M07 A2987 RMK A01 T01481074  RH  021%=      5-min Rain = 0
KMC4 202152Z 11006KT 15/M07 A2987 RMK A01 T01481074  RH  021%=      5-min Rain = 0
KMC4 202153Z 11005KT 15/M08 A2987 RMK A01 T01471075  RH  021%=      5-min Rain = 0
KMC4 202154Z 14009KT 15/M07 A2987 RMK A01 T01481070  RH  022%=      5-min Rain = 0
KMC4 202155Z 15006KT 15/M07 A2987 RMK A01 T01501071  RH  021%=      5-min Rain = 0
KMC4 202156Z 15004KT 15/M07 A2987 RMK A01 T01511072  RH  021%=      5-min Rain = 0
KMC4 202157Z 15005KT 15/M07 A2987 RMK A01 T01501072  RH  021%=      5-min Rain = 0
KMC4 202158Z 15004KT 15/M07 A2987 RMK A01 T01501069  RH  021%=      5-min Rain = 0
KMC4 202159Z 13003KT 15/M07 A2987 RMK A01 T01511073  RH  021%=      5-min Rain = 0
KMC4 202200Z 11003KT 15/M07 A2987 RMK A01 T01501073  RH  021%=      5-min Rain = 0
KMC4 202201Z 11003KT 15/M07 A2987 RMK A01 T01491073  RH  021%=      5-min Rain = 0
KMC4 202202Z 09002KT 15/M07 A2987 RMK A01 T01471073  RH  021%=      5-min Rain = 0
KMC4 202203Z 13004KT 15/M07 A2987 RMK A01 T01471070  RH  022%=      5-min Rain = 0
KMC4 202204Z 14004KT 15/M07 A2987 RMK A01 T01481070  RH  021%=      5-min Rain = 0
KMC4 202205Z 15004KT 15/M07 A2987 RMK A01 T01491070  RH  021%=      5-min Rain = 0
KMC4 202206Z 09005KT 15/M07 A2986 RMK A01 T01501068  RH  022%=      5-min Rain = 0
KMC4 202207Z 09004KT 15/M07 A2986 RMK A01 T01491070  RH  021%=      5-min Rain = 0
KMC4 202208Z 08003KT 15/M07 A2986 RMK A01 T01491071  RH  021%=      5-min Rain = 0
KMC4 202209Z 14005G11KT 15/M07 A2987 RMK A01 T01481069  RH  022%=      5-min Rain = 0
KMC4 202210Z 14008KT 15/M06 A2987 RMK A01 T01491063  RH  022%=      5-min Rain = 0
KMC4 202211Z 13006KT 15/M07 A2987 RMK A01 T01501067  RH  022%=      5-min Rain = 0
KMC4 202212Z 13005KT 15/M07 A2987 RMK A01 T01491070  RH  021%=      5-min Rain = 0
KMC4 202213Z 11004KT 15/M07 A2987 RMK A01 T01481067  RH  022%=      5-min Rain = 0
KMC4 202214Z 12005KT 15/M07 A2987 RMK A01 T01471068  RH  022%=      5-min Rain = 0
KMC4 202215Z 11003KT 15/M07 A2987 RMK A01 T01471070  RH  022%=      5-min Rain = 0
KMC4 202216Z 13002KT 15/M07 A2987 RMK A01 T01471068  RH  022%=      5-min Rain = 0
KMC4 202217Z 12003KT 15/M07 A2987 RMK A01 T01491065  RH  022%=      5-min Rain = 0
KMC4 202218Z 15005KT 15/M06 A2986 RMK A01 T01511062  RH  023%=      5-min Rain = 0
KMC4 202219Z 14008KT 15/M06 A2986 RMK A01 T01521059  RH  023%=      5-min Rain = 0
KMC4 202220Z 13007KT 15/M06 A2986 RMK A01 T01531058  RH  023%=      5-min Rain = 0
KMC4 202221Z 13004KT 15/M06 A2986 RMK A01 T01531060  RH  023%=      5-min Rain = 0
KMC4 202222Z 13007KT 15/M06 A2986 RMK A01 T01511060  RH  023%=      5-min Rain = 0
KMC4 202223Z 13009KT 15/M06 A2986 RMK A01 T01511057  RH  023%=      5-min Rain = 0
KMC4 202224Z 12008KT 15/M06 A2986 RMK A01 T01521057  RH  023%=      5-min Rain = 0
KMC4 202225Z 14008KT 15/M06 A2986 RMK A01 T01511056  RH  023%=      5-min Rain = 0
KMC4 202226Z 14007KT 15/M05 A2986 RMK A01 T01511054  RH  024%=      5-min Rain = 0
KMC4 202227Z 15007KT 15/M05 A2986 RMK A01 T01511053  RH  024%=      5-min Rain = 0
KMC4 202228Z 14005KT 15/M06 A2986 RMK A01 T01501056  RH  024%=      5-min Rain = 0
KMC4 202229Z 13005KT 15/M06 A2986 RMK A01 T01481056  RH  024%=      5-min Rain = 0
KMC4 202230Z 16003KT 15/M06 A2986 RMK A01 T01481056  RH  024%=      5-min Rain = 0
KMC4 202231Z 14003KT 15/M06 A2986 RMK A01 T01481056  RH  024%=      5-min Rain = 0
KMC4 202232Z 18005KT 15/M05 A2986 RMK A01 T01481053  RH  024%=      5-min Rain = 0
KMC4 202233Z 20004KT 15/M06 A2986 RMK A01 T01491055  RH  024%=      5-min Rain = 0
KMC4 202234Z 19005KT 15/M06 A2986 RMK A01 T01491055  RH  024%=      5-min Rain = 0
KMC4 202235Z 18005KT 15/M05 A2986 RMK A01 T01491052  RH  025%=      5-min Rain = 0
KMC4 202236Z 19004KT 15/M06 A2986 RMK A01 T01491055  RH  024%=      5-min Rain = 0
KMC4 202237Z 18005KT 15/M06 A2986 RMK A01 T01481056  RH  024%=      5-min Rain = 0
KMC4 202238Z 15005KT 15/M06 A2986 RMK A01 T01471056  RH  024%=      5-min Rain = 0
KMC4 202239Z 17005KT 15/M05 A2986 RMK A01 T01481054  RH  024%=      5-min Rain = 0
KMC4 202240Z 16007KT 15/M05 A2985 RMK A01 T01481054  RH  024%=      5-min Rain = 0
KMC4 202241Z 14004KT 15/M05 A2985 RMK A01 T01491054  RH  024%=      5-min Rain = 0
KMC4 202242Z 16005KT 15/M06 A2985 RMK A01 T01491056  RH  024%=      5-min Rain = 0
KMC4 202243Z 16003KT 15/M06 A2985 RMK A01 T01501055  RH  024%=      5-min Rain = 0
KMC4 202244Z 19003KT 15/M05 A2985 RMK A01 T01501054  RH  024%=      5-min Rain = 0
KMC4 202245Z 18003KT 15/M06 A2985 RMK A01 T01501056  RH  024%=      5-min Rain = 0
KMC4 202246Z 16004KT 15/M06 A2985 RMK A01 T01501056  RH  024%=      5-min Rain = 0
KMC4 202247Z 16006KT 15/M05 A2985 RMK A01 T01501054  RH  024%=      5-min Rain = 0
KMC4 202248Z 15005KT 15/M06 A2985 RMK A01 T01491055  RH  024%=      5-min Rain = 0
KMC4 202249Z 12004KT 15/M05 A2986 RMK A01 T01491054  RH  024%=      5-min Rain = 0
KMC4 202250Z 13003KT 15/M06 A2986 RMK A01 T01491056  RH  024%=      5-min Rain = 0
KMC4 202251Z 16004KT 15/M05 A2986 RMK A01 T01491054  RH  024%=      5-min Rain = 0
KMC4 202252Z 17004KT 15/M06 A2986 RMK A01 T01491055  RH  024%=      5-min Rain = 0
KMC4 202253Z 16004KT 15/M05 A2986 RMK A01 T01491053  RH  024%=      5-min Rain = 0
KMC4 202254Z 11003KT 15/M05 A2986 RMK A01 T01491053  RH  024%=      5-min Rain = 0
KMC4 202255Z 12005KT 15/M05 A2986 RMK A01 T01501050  RH  025%=      5-min Rain = 0
KMC4 202256Z 11006KT 15/M05 A2986 RMK A01 T01501053  RH  024%=      5-min Rain = 0
KMC4 202257Z 10007KT 15/M05 A2986 RMK A01 T01491053  RH  024%=      5-min Rain = 0
KMC4 202258Z 10009KT 15/M05 A2985 RMK A01 T01491052  RH  024%=      5-min Rain = 0
KMC4 202259Z 10008KT 15/M05 A2985 RMK A01 T01481053  RH  025%=      5-min Rain = 0
KMC4 202300Z 11007KT 15/M05 A2985 RMK A01 T01481053  RH  025%=      5-min Rain = 0
KMC4 202301Z 11007KT 15/M05 A2985 RMK A01 T01481051  RH  025%=      5-min Rain = 0
KMC4 202302Z 10007KT 15/M05 A2985 RMK A01 T01471052  RH  025%=      5-min Rain = 0
KMC4 202303Z 10007KT 15/M05 A2985 RMK A01 T01481052  RH  025%=      5-min Rain = 0
KMC4 202304Z 10008KT 15/M05 A2985 RMK A01 T01481053  RH  025%=      5-min Rain = 0
KMC4 202305Z 10007KT 15/M05 A2985 RMK A01 T01481053  RH  025%=      5-min Rain = 0
KMC4 202306Z 10008KT 15/M05 A2985 RMK A01 T01501051  RH  025%=      5-min Rain = 0
KMC4 202307Z 11008KT 15/M05 A2985 RMK A01 T01521050  RH  025%=      5-min Rain = 0
KMC4 202308Z 11010KT 15/M05 A2985 RMK A01 T01531050  RH  024%=      5-min Rain = 0
KMC4 202309Z 11010KT 15/M05 A2985 RMK A01 T01531051  RH  024%=      5-min Rain = 0
KMC4 202310Z 12009KT 15/M05 A2985 RMK A01 T01541051  RH  024%=      5-min Rain = 0
KMC4 202311Z 12009KT 15/M05 A2986 RMK A01 T01531050  RH  024%=      5-min Rain = 0
KMC4 202312Z 12010KT 16/M05 A2986 RMK A01 T01551047  RH  025%=      5-min Rain = 0
KMC4 202313Z 12011KT 16/M05 A2986 RMK A01 T01561048  RH  024%=      5-min Rain = 0
KMC4 202314Z 12010KT 16/M05 A2986 RMK A01 T01561049  RH  024%=      5-min Rain = 0
KMC4 202315Z 13011KT 16/M05 A2986 RMK A01 T01551049  RH  024%=      5-min Rain = 0
KMC4 202316Z 12013KT 15/M05 A2986 RMK A01 T01541049  RH  024%=      5-min Rain = 0
KMC4 202317Z 11012KT 15/M05 A2986 RMK A01 T01541049  RH  024%=      5-min Rain = 0
KMC4 202318Z 11013KT 15/M05 A2986 RMK A01 T01531049  RH  025%=      5-min Rain = 0
KMC4 202319Z 12013KT 15/M05 A2986 RMK A01 T01511049  RH  025%=      5-min Rain = 0
KMC4 202320Z 12014KT 15/M05 A2986 RMK A01 T01511048  RH  025%=      5-min Rain = 0
KMC4 202321Z 12013KT 15/M05 A2986 RMK A01 T01501051  RH  025%=      5-min Rain = 0
KMC4 202322Z 12013KT 15/M05 A2986 RMK A01 T01491050  RH  025%=      5-min Rain = 0
KMC4 202323Z 11011KT 15/M05 A2986 RMK A01 T01491050  RH  025%=      5-min Rain = 0
KMC4 202324Z 11010KT 15/M05 A2986 RMK A01 T01481050  RH  025%=      5-min Rain = 0
KMC4 202325Z 12012KT 15/M05 A2986 RMK A01 T01481049  RH  025%=      5-min Rain = 0
KMC4 202326Z 11013KT 15/M05 A2986 RMK A01 T01481050  RH  025%=      5-min Rain = 0
KMC4 202327Z 11011KT 15/M05 A2986 RMK A01 T01471050  RH  025%=      5-min Rain = 0
KMC4 202328Z 12009KT 15/M05 A2986 RMK A01 T01471050  RH  025%=      5-min Rain = 0
KMC4 202329Z 12010KT 15/M05 A2986 RMK A01 T01471049  RH  026%=      5-min Rain = 0
KMC4 202330Z 12009KT 15/M05 A2986 RMK A01 T01471048  RH  026%=      5-min Rain = 0
KMC4 202331Z 13012KT 15/M05 A2986 RMK A01 T01481048  RH  025%=      5-min Rain = 0
KMC4 202332Z 12011KT 15/M05 A2986 RMK A01 T01471049  RH  025%=      5-min Rain = 0
KMC4 202333Z 12011KT 15/M05 A2986 RMK A01 T01461049  RH  026%=      5-min Rain = 0
KMC4 202334Z 11011KT 15/M05 A2986 RMK A01 T01451049  RH  026%=      5-min Rain = 0
KMC4 202335Z 11011KT 14/M05 A2986 RMK A01 T01441048  RH  026%=      5-min Rain = 0
KMC4 202336Z 12011KT 14/M05 A2986 RMK A01 T01441048  RH  026%=      5-min Rain = 0
KMC4 202337Z 10010KT 14/M05 A2986 RMK A01 T01441048  RH  026%=      5-min Rain = 0
KMC4 202338Z 11012KT 15/M05 A2986 RMK A01 T01451048  RH  026%=      5-min Rain = 0
KMC4 202339Z 11009KT 15/M05 A2986 RMK A01 T01451049  RH  026%=      5-min Rain = 0
KMC4 202340Z 10010KT 15/M05 A2986 RMK A01 T01451048  RH  026%=      5-min Rain = 0
KMC4 202341Z 10009KT 15/M05 A2986 RMK A01 T01451048  RH  026%=      5-min Rain = 0
KMC4 202342Z 10008KT 15/M05 A2986 RMK A01 T01451047  RH  026%=      5-min Rain = 0
KMC4 202343Z 10008KT 15/M05 A2986 RMK A01 T01461046  RH  026%=      5-min Rain = 0
KMC4 202344Z 10009KT 15/M05 A2986 RMK A01 T01461047  RH  026%=      5-min Rain = 0
KMC4 202345Z 10009KT 15/M05 A2986 RMK A01 T01461047  RH  026%=      5-min Rain = 0
KMC4 202346Z 10008KT 15/M05 A2986 RMK A01 T01461046  RH  026%=      5-min Rain = 0
KMC4 202347Z 11009KT 15/M05 A2986 RMK A01 T01461046  RH  026%=      5-min Rain = 0
KMC4 202348Z 11010KT 15/M05 A2986 RMK A01 T01461047  RH  026%=      5-min Rain = 0
KMC4 202349Z 10008KT 15/M05 A2987 RMK A01 T01461046  RH  026%=      5-min Rain = 0
KMC4 202350Z 11009KT 15/M05 A2987 RMK A01 T01451046  RH  026%=      5-min Rain = 0
KMC4 202351Z 10010KT 14/M05 A2987 RMK A01 T01441048  RH  026%=      5-min Rain = 0
KMC4 202352Z 10009KT 14/M05 A2987 RMK A01 T01421048  RH  026%=      5-min Rain = 0
KMC4 202353Z 10010KT 14/M05 A2987 RMK A01 T01421047  RH  027%=      5-min Rain = 0
KMC4 202354Z 10009KT 14/M05 A2987 RMK A01 T01411048  RH  027%=      5-min Rain = 0
KMC4 202355Z 11008KT 14/M05 A2987 RMK A01 T01411047  RH  027%=      5-min Rain = 0
KMC4 202356Z 11007KT 14/M05 A2987 RMK A01 T01401047  RH  027%=      5-min Rain = 0
KMC4 202357Z 11007KT 14/M05 A2987 RMK A01 T01401046  RH  027%=      5-min Rain = 0
KMC4 202358Z 11007KT 14/M05 A2987 RMK A01 T01401045  RH  028%=      5-min Rain = 0
KMC4 202359Z 11010KT 14/M05 A2987 RMK A01 T01391047  RH  027%=      5-min Rain = 0
KMC4 210000Z 10008KT 14/M05 A2987 RMK A01 T01391049  RH  027%=      5-min Rain = 0
KMC4 210001Z 10007KT 14/M05 A2987 RMK A01 T01391048  RH  027%=      5-min Rain = 0
KMC4 210002Z 10010KT 14/M05 A2987 RMK A01 T01391047  RH  027%=      5-min Rain = 0
KMC4 210003Z 10009KT 14/M05 A2987 RMK A01 T01381048  RH  027%=      5-min Rain = 0
KMC4 210004Z 10006KT 14/M05 A2987 RMK A01 T01381047  RH  027%=      5-min Rain = 0
KMC4 210005Z 10008KT 14/M05 A2987 RMK A01 T01381047  RH  027%=      5-min Rain = 0
KMC4 210006Z 11008KT 14/M05 A2987 RMK A01 T01381047  RH  027%=      5-min Rain = 0
KMC4 210007Z 12005KT 14/M05 A2987 RMK A01 T01381046  RH  028%=      5-min Rain = 0
KMC4 210008Z 13007KT 14/M05 A2987 RMK A01 T01371045  RH  028%=      5-min Rain = 0
KMC4 210009Z 13008KT 14/M05 A2987 RMK A01 T01361045  RH  028%=      5-min Rain = 0
KMC4 210010Z 14006KT 14/M05 A2987 RMK A01 T01351046  RH  028%=      5-min Rain = 0
KMC4 210011Z 13007KT 14/M04 A2987 RMK A01 T01351044  RH  029%=      5-min Rain = 0
KMC4 210012Z 14007KT 13/M04 A2988 RMK A01 T01341044  RH  029%=      5-min Rain = 0
KMC4 210013Z 14007KT 13/M04 A2988 RMK A01 T01341044  RH  029%=      5-min Rain = 0
KMC4 210014Z 13008KT 13/M05 A2988 RMK A01 T01331045  RH  029%=      5-min Rain = 0
KMC4 210015Z 13009KT 13/M05 A2988 RMK A01 T01331046  RH  028%=      5-min Rain = 0
KMC4 210016Z 14008KT 13/M05 A2988 RMK A01 T01331047  RH  028%=      5-min Rain = 0
KMC4 210017Z 14008KT 13/M05 A2988 RMK A01 T01331046  RH  028%=      5-min Rain = 0
KMC4 210018Z 13008KT 13/M05 A2987 RMK A01 T01331046  RH  028%=      5-min Rain = 0
KMC4 210019Z 14009KT 13/M05 A2987 RMK A01 T01331046  RH  029%=      5-min Rain = 0
KMC4 210020Z 13007KT 13/M05 A2987 RMK A01 T01331046  RH  029%=      5-min Rain = 0
KMC4 210021Z 13007KT 13/M05 A2987 RMK A01 T01321045  RH  029%=      5-min Rain = 0
KMC4 210022Z 13007KT 13/M05 A2987 RMK A01 T01311045  RH  029%=      5-min Rain = 0
KMC4 210023Z 14007KT 13/M05 A2987 RMK A01 T01311045  RH  029%=      5-min Rain = 0
KMC4 210024Z 13007KT 13/M05 A2987 RMK A01 T01301046  RH  029%=      5-min Rain = 0
KMC4 210025Z 13006KT 13/M05 A2987 RMK A01 T01301045  RH  029%=      5-min Rain = 0
KMC4 210026Z 13007KT 13/M05 A2987 RMK A01 T01291045  RH  029%=      5-min Rain = 0
KMC4 210027Z 12007KT 13/M05 A2987 RMK A01 T01281045  RH  030%=      5-min Rain = 0
KMC4 210028Z 12006KT 13/M05 A2987 RMK A01 T01281045  RH  030%=      5-min Rain = 0
KMC4 210029Z 12006KT 13/M05 A2987 RMK A01 T01281045  RH  030%=      5-min Rain = 0
KMC4 210030Z 12007KT 13/M04 A2987 RMK A01 T01281044  RH  030%=      5-min Rain = 0
KMC4 210031Z 12007KT 13/M05 A2987 RMK A01 T01271045  RH  030%=      5-min Rain = 0
KMC4 210032Z 12008KT 13/M05 A2987 RMK A01 T01281045  RH  030%=      5-min Rain = 0
KMC4 210033Z 12008KT 13/M05 A2987 RMK A01 T01281045  RH  030%=      5-min Rain = 0
KMC4 210034Z 12007KT 13/M04 A2987 RMK A01 T01281044  RH  030%=      5-min Rain = 0
KMC4 210035Z 13008KT 13/M04 A2987 RMK A01 T01271044  RH  030%=      5-min Rain = 0
KMC4 210036Z 12008KT 13/M04 A2988 RMK A01 T01271044  RH  030%=      5-min Rain = 0
KMC4 210037Z 13008KT 13/M04 A2988 RMK A01 T01261044  RH  030%=      5-min Rain = 0
KMC4 210038Z 13008KT 13/M04 A2988 RMK A01 T01261044  RH  030%=      5-min Rain = 0
KMC4 210039Z 13007KT 13/M04 A2988 RMK A01 T01251044  RH  031%=      5-min Rain = 0
KMC4 210040Z 13008KT 12/M04 A2988 RMK A01 T01241044  RH  031%=      5-min Rain = 0
KMC4 210041Z 12007KT 12/M04 A2988 RMK A01 T01231044  RH  031%=      5-min Rain = 0
KMC4 210042Z 13007KT 12/M04 A2988 RMK A01 T01221044  RH  031%=      5-min Rain = 0
KMC4 210043Z 13007KT 12/M04 A2988 RMK A01 T01211044  RH  031%=      5-min Rain = 0
KMC4 210044Z 12007KT 12/M04 A2988 RMK A01 T01201044  RH  032%=      5-min Rain = 0
KMC4 210045Z 12007KT 12/M04 A2988 RMK A01 T01191044  RH  032%=      5-min Rain = 0
KMC4 210046Z 12007KT 12/M04 A2987 RMK A01 T01191044  RH  032%=      5-min Rain = 0
KMC4 210047Z 13006KT 12/M04 A2987 RMK A01 T01181044  RH  032%=      5-min Rain = 0
KMC4 210048Z 13006KT 12/M04 A2987 RMK A01 T01181044  RH  032%=      5-min Rain = 0
KMC4 210049Z 13006KT 12/M04 A2988 RMK A01 T01171043  RH  032%=      5-min Rain = 0
KMC4 210050Z 12007KT 12/M04 A2988 RMK A01 T01161044  RH  033%=      5-min Rain = 0
KMC4 210051Z 13007KT 12/M04 A2988 RMK A01 T01151043  RH  033%=      5-min Rain = 0
KMC4 210052Z 13007KT 12/M04 A2988 RMK A01 T01151044  RH  033%=      5-min Rain = 0
KMC4 210053Z 13007KT 12/M04 A2988 RMK A01 T01151043  RH  033%=      5-min Rain = 0
KMC4 210054Z 12007KT 11/M04 A2988 RMK A01 T01141044  RH  033%=      5-min Rain = 0
KMC4 210055Z 12007KT 11/M04 A2988 RMK A01 T01141044  RH  033%=      5-min Rain = 0
KMC4 210056Z 12007KT 11/M04 A2988 RMK A01 T01141044  RH  033%=      5-min Rain = 0
KMC4 210057Z 12007KT 11/M04 A2988 RMK A01 T01141044  RH  033%=      5-min Rain = 0
KMC4 210058Z 12008KT 11/M04 A2988 RMK A01 T01141044  RH  033%=      5-min Rain = 0
KMC4 210059Z 12008KT 12/M04 A2988 RMK A01 T01151044  RH  032%=      5-min Rain = 0
KMC4 210100Z 12008KT 12/M05 A2988 RMK A01 T01161045  RH  032%=      5-min Rain = 0
KMC4 210101Z 12008KT 12/M05 A2988 RMK A01 T01161045  RH  032%=      5-min Rain = 0
KMC4 210102Z 12008KT 12/M05 A2988 RMK A01 T01161045  RH  032%=      5-min Rain = 0
KMC4 210103Z 12008KT 12/M05 A2988 RMK A01 T01151045  RH  032%=      5-min Rain = 0
KMC4 210104Z 12008KT 12/M04 A2988 RMK A01 T01151044  RH  033%=      5-min Rain = 0
KMC4 210105Z 12008KT 11/M05 A2988 RMK A01 T01141045  RH  033%=      5-min Rain = 0
KMC4 210106Z 12008KT 11/M05 A2988 RMK A01 T01131045  RH  033%=      5-min Rain = 0
KMC4 210107Z 13008KT 11/M04 A2988 RMK A01 T01131044  RH  033%=      5-min Rain = 0
KMC4 210108Z 13008KT 11/M04 A2988 RMK A01 T01131044  RH  033%=      5-min Rain = 0
KMC4 210109Z 13008KT 11/M04 A2988 RMK A01 T01131044  RH  033%=      5-min Rain = 0
KMC4 210110Z 12008KT 11/M04 A2988 RMK A01 T01121044  RH  033%=      5-min Rain = 0
KMC4 210111Z 13007KT 11/M05 A2988 RMK A01 T01111045  RH  033%=      5-min Rain = 0
KMC4 210112Z 13007KT 11/M04 A2988 RMK A01 T01111044  RH  033%=      5-min Rain = 0
KMC4 210113Z 13007KT 11/M04 A2988 RMK A01 T01101044  RH  034%=      5-min Rain = 0
KMC4 210114Z 13007KT 11/M04 A2988 RMK A01 T01091044  RH  034%=      5-min Rain = 0
KMC4 210115Z 13007KT 11/M04 A2988 RMK A01 T01081044  RH  034%=      5-min Rain = 0
KMC4 210116Z 13007KT 11/M04 A2988 RMK A01 T01071044  RH  034%=      5-min Rain = 0
KMC4 210117Z 13007KT 11/M04 A2988 RMK A01 T01061044  RH  034%=      5-min Rain = 0
KMC4 210118Z 13008KT 11/M05 A2988 RMK A01 T01061045  RH  034%=      5-min Rain = 0
KMC4 210119Z 13008KT 11/M05 A2988 RMK A01 T01061045  RH  034%=      5-min Rain = 0
KMC4 210120Z 13008KT 11/M05 A2988 RMK A01 T01061045  RH  034%=      5-min Rain = 0
KMC4 210121Z 13008KT 11/M05 A2988 RMK A01 T01061045  RH  034%=      5-min Rain = 0
KMC4 210122Z 13008KT 11/M05 A2988 RMK A01 T01061046  RH  034%=      5-min Rain = 0
KMC4 210123Z 13008KT 11/M05 A2988 RMK A01 T01061046  RH  034%=      5-min Rain = 0
KMC4 210124Z 13008KT 11/M05 A2988 RMK A01 T01061045  RH  034%=      5-min Rain = 0
KMC4 210125Z 13008KT 11/M05 A2988 RMK A01 T01061046  RH  034%=      5-min Rain = 0
KMC4 210126Z 13008KT 11/M05 A2988 RMK A01 T01051046  RH  034%=      5-min Rain = 0
KMC4 210127Z 13007KT 11/M05 A2988 RMK A01 T01051046  RH  034%=      5-min Rain = 0
KMC4 210128Z 14008KT 10/M05 A2988 RMK A01 T01041046  RH  034%=      5-min Rain = 0
KMC4 210129Z 14008KT 10/M05 A2988 RMK A01 T01041046  RH  034%=      5-min Rain = 0
KMC4 210130Z 14008KT 10/M05 A2988 RMK A01 T01041046  RH  035%=      5-min Rain = 0
KMC4 210131Z 14008KT 10/M05 A2988 RMK A01 T01031047  RH  035%=      5-min Rain = 0
KMC4 210132Z 14007KT 10/M05 A2988 RMK A01 T01021047  RH  035%=      5-min Rain = 0
KMC4 210133Z 14007KT 10/M05 A2988 RMK A01 T01011047  RH  035%=      5-min Rain = 0
KMC4 210134Z 13008KT 10/M05 A2988 RMK A01 T01011047  RH  035%=      5-min Rain = 0
KMC4 210135Z 14008KT 10/M05 A2988 RMK A01 T01001047  RH  035%=      5-min Rain = 0
KMC4 210136Z 14008KT 10/M05 A2988 RMK A01 T01001047  RH  035%=      5-min Rain = 0
KMC4 210137Z 14008KT 10/M05 A2988 RMK A01 T01001047  RH  035%=      5-min Rain = 0
KMC4 210138Z 14008KT 10/M05 A2988 RMK A01 T01001047  RH  035%=      5-min Rain = 0
KMC4 210139Z 14008KT 10/M05 A2988 RMK A01 T01001046  RH  035%=      5-min Rain = 0
KMC4 210140Z 14008KT 10/M05 A2988 RMK A01 T01001047  RH  035%=      5-min Rain = 0
KMC4 210141Z 13008KT 10/M05 A2988 RMK A01 T01011047  RH  035%=      5-min Rain = 0
KMC4 210142Z 13008KT 10/M05 A2988 RMK A01 T01011046  RH  035%=      5-min Rain = 0
KMC4 210143Z 13007KT 10/M05 A2988 RMK A01 T01021047  RH  035%=      5-min Rain = 0
KMC4 210144Z 14007KT 10/M05 A2988 RMK A01 T01011046  RH  035%=      5-min Rain = 0
KMC4 210145Z 13007KT 10/M05 A2988 RMK A01 T01011046  RH  035%=      5-min Rain = 0
KMC4 210146Z 13007KT 10/M05 A2988 RMK A01 T01011046  RH  035%=      5-min Rain = 0
KMC4 210147Z 13008KT 10/M05 A2988 RMK A01 T01001046  RH  035%=      5-min Rain = 0
KMC4 210148Z 13008KT 10/M05 A2988 RMK A01 T01001046  RH  035%=      5-min Rain = 0
KMC4 210149Z 13008KT 10/M05 A2988 RMK A01 T01001046  RH  035%=      5-min Rain = 0
KMC4 210150Z 13007KT 10/M05 A2988 RMK A01 T01001046  RH  035%=      5-min Rain = 0
KMC4 210151Z 13007KT 10/M05 A2988 RMK A01 T00991046  RH  036%=      5-min Rain = 0
KMC4 210152Z 13006KT 10/M05 A2988 RMK A01 T00991046  RH  036%=      5-min Rain = 0
KMC4 210153Z 13006KT 10/M05 A2988 RMK A01 T00981046  RH  036%=      5-min Rain = 0
KMC4 210154Z 13006KT 10/M05 A2988 RMK A01 T00971046  RH  036%=      5-min Rain = 0
KMC4 210155Z 12006KT 10/M05 A2988 RMK A01 T00971046  RH  036%=      5-min Rain = 0
KMC4 210156Z 12006KT 10/M05 A2988 RMK A01 T00971046  RH  036%=      5-min Rain = 0
KMC4 210157Z 11006KT 10/M05 A2988 RMK A01 T00981046  RH  036%=      5-min Rain = 0
KMC4 210158Z 12005KT 10/M05 A2988 RMK A01 T00981046  RH  036%=      5-min Rain = 0
KMC4 210159Z 12005KT 10/M05 A2988 RMK A01 T00981046  RH  036%=      5-min Rain = 0
KMC4 210200Z 12005KT 10/M05 A2988 RMK A01 T00991046  RH  036%=      5-min Rain = 0
KMC4 210201Z 12005KT 10/M05 A2988 RMK A01 T00991046  RH  036%=      5-min Rain = 0
KMC4 210202Z 12004KT 10/M05 A2988 RMK A01 T00991046  RH  036%=      5-min Rain = 0
KMC4 210203Z 11005KT 10/M05 A2988 RMK A01 T00991045  RH  036%=      5-min Rain = 0
KMC4 210204Z 11004KT 10/M05 A2988 RMK A01 T01001045  RH  036%=      5-min Rain = 0
KMC4 210205Z 11005KT 10/M05 A2988 RMK A01 T01001045  RH  036%=      5-min Rain = 0
KMC4 210206Z 11005KT 10/M05 A2988 RMK A01 T00991045  RH  036%=      5-min Rain = 0
KMC4 210207Z 11005KT 10/M05 A2988 RMK A01 T00991045  RH  036%=      5-min Rain = 0
KMC4 210208Z 11005KT 10/M05 A2988 RMK A01 T00991045  RH  036%=      5-min Rain = 0
KMC4 210209Z 11006KT 10/M05 A2988 RMK A01 T00991045  RH  036%=      5-min Rain = 0
KMC4 210210Z 11005KT 10/M05 A2988 RMK A01 T00991045  RH  036%=      5-min Rain = 0
KMC4 210211Z 11005KT 10/M05 A2988 RMK A01 T00991045  RH  036%=      5-min Rain = 0
KMC4 210212Z 11006KT 10/M05 A2988 RMK A01 T00981045  RH  036%=      5-min Rain = 0
KMC4 210213Z 12006KT 10/M05 A2989 RMK A01 T00981045  RH  036%=      5-min Rain = 0
KMC4 210214Z 12005KT 10/M05 A2989 RMK A01 T00991045  RH  036%=      5-min Rain = 0
KMC4 210215Z 11006KT 10/M04 A2989 RMK A01 T00991044  RH  036%=      5-min Rain = 0
KMC4 210216Z 11007KT 10/M05 A2989 RMK A01 T00991045  RH  036%=      5-min Rain = 0
KMC4 210217Z 11006KT 10/M05 A2989 RMK A01 T01001045  RH  036%=      5-min Rain = 0
KMC4 210218Z 11006KT 10/M05 A2989 RMK A01 T01001045  RH  036%=      5-min Rain = 0
KMC4 210219Z 11006KT 10/M04 A2989 RMK A01 T01011044  RH  036%=      5-min Rain = 0
KMC4 210220Z 11006KT 10/M04 A2988 RMK A01 T01001044  RH  036%=      5-min Rain = 0
KMC4 210221Z 11006KT 10/M04 A2988 RMK A01 T01011044  RH  036%=      5-min Rain = 0
KMC4 210222Z 10006KT 10/M04 A2988 RMK A01 T01001044  RH  036%=      5-min Rain = 0
KMC4 210223Z 10006KT 10/M04 A2988 RMK A01 T00991044  RH  036%=      5-min Rain = 0
KMC4 210224Z 10005KT 10/M05 A2988 RMK A01 T00991045  RH  036%=      5-min Rain = 0
KMC4 210225Z 10006KT 10/M05 A2988 RMK A01 T00981045  RH  036%=      5-min Rain = 0
KMC4 210226Z 10006KT 10/M05 A2988 RMK A01 T00971045  RH  036%=      5-min Rain = 0
KMC4 210227Z 10006KT 10/M05 A2989 RMK A01 T00971045  RH  037%=      5-min Rain = 0
KMC4 210228Z 11006KT 10/M05 A2989 RMK A01 T00971045  RH  037%=      5-min Rain = 0
KMC4 210229Z 11006KT 10/M04 A2989 RMK A01 T00971044  RH  037%=      5-min Rain = 0
KMC4 210230Z 11005KT 10/M04 A2989 RMK A01 T00961044  RH  037%=      5-min Rain = 0
KMC4 210231Z 11005KT 10/M04 A2989 RMK A01 T00961044  RH  037%=      5-min Rain = 0
KMC4 210232Z 11006KT 10/M04 A2989 RMK A01 T00951044  RH  037%=      5-min Rain = 0
KMC4 210233Z 11005KT 09/M04 A2989 RMK A01 T00941044  RH  037%=      5-min Rain = 0
KMC4 210234Z 11006KT 09/M04 A2989 RMK A01 T00941043  RH  038%=      5-min Rain = 0
KMC4 210235Z 11007KT 09/M04 A2988 RMK A01 T00941043  RH  038%=      5-min Rain = 0
KMC4 210236Z 11007KT 10/M04 A2988 RMK A01 T00951043  RH  038%=      5-min Rain = 0
KMC4 210237Z 11007KT 10/M04 A2988 RMK A01 T00961042  RH  038%=      5-min Rain = 0
KMC4 210238Z 11006KT 10/M04 A2988 RMK A01 T00961042  RH  037%=      5-min Rain = 0
KMC4 210239Z 10006KT 10/M04 A2988 RMK A01 T00961042  RH  037%=      5-min Rain = 0
KMC4 210240Z 11006KT 10/M04 A2988 RMK A01 T00971042  RH  037%=      5-min Rain = 0
KMC4 210241Z 11006KT 10/M04 A2988 RMK A01 T00981041  RH  037%=      5-min Rain = 0
KMC4 210242Z 11006KT 10/M04 A2988 RMK A01 T00981041  RH  037%=      5-min Rain = 0
KMC4 210243Z 11006KT 10/M04 A2988 RMK A01 T00981041  RH  037%=      5-min Rain = 0
KMC4 210244Z 11005KT 10/M04 A2988 RMK A01 T00971041  RH  037%=      5-min Rain = 0
KMC4 210245Z 10005KT 10/M04 A2988 RMK A01 T00971041  RH  038%=      5-min Rain = 0
KMC4 210246Z 10004KT 10/M04 A2988 RMK A01 T00971040  RH  038%=      5-min Rain = 0
KMC4 210247Z 10005KT 10/M04 A2988 RMK A01 T00961041  RH  038%=      5-min Rain = 0
KMC4 210248Z 10005KT 10/M04 A2988 RMK A01 T00971040  RH  038%=      5-min Rain = 0
KMC4 210249Z 09004KT 10/M04 A2988 RMK A01 T00961040  RH  038%=      5-min Rain = 0
KMC4 210250Z 09005KT 10/M04 A2988 RMK A01 T00961040  RH  038%=      5-min Rain = 0
KMC4 210251Z 10005KT 10/M04 A2988 RMK A01 T00961040  RH  038%=      5-min Rain = 0
KMC4 210252Z 10005KT 10/M04 A2988 RMK A01 T00951039  RH  038%=      5-min Rain = 0
KMC4 210253Z 09004KT 10/M04 A2988 RMK A01 T00951039  RH  039%=      5-min Rain = 0
KMC4 210254Z 09004KT 10/M04 A2988 RMK A01 T00961038  RH  039%=      5-min Rain = 0
KMC4 210255Z 09004KT 10/M04 A2989 RMK A01 T00961038  RH  039%=      5-min Rain = 0
KMC4 210256Z 10004KT 10/M04 A2989 RMK A01 T00961038  RH  039%=      5-min Rain = 0
KMC4 210257Z 10004KT 10/M04 A2989 RMK A01 T00961038  RH  039%=      5-min Rain = 0
KMC4 210258Z 10004KT 10/M04 A2989 RMK A01 T00971038  RH  038%=      5-min Rain = 0
KMC4 210259Z 10004KT 10/M04 A2989 RMK A01 T00971038  RH  038%=      5-min Rain = 0
KMC4 210300Z 11004KT 10/M04 A2989 RMK A01 T00971038  RH  039%=      5-min Rain = 0
KMC4 210301Z 11004KT 10/M04 A2989 RMK A01 T00971038  RH  039%=      5-min Rain = 0
KMC4 210302Z 11004KT 10/M04 A2989 RMK A01 T00971037  RH  039%=      5-min Rain = 0
KMC4 210303Z 11005KT 10/M04 A2989 RMK A01 T00971037  RH  039%=      5-min Rain = 0
KMC4 210304Z 11004KT 10/M04 A2989 RMK A01 T00971037  RH  039%=      5-min Rain = 0
KMC4 210305Z 11005KT 10/M04 A2989 RMK A01 T00971036  RH  039%=      5-min Rain = 0
KMC4 210306Z 11005KT 10/M04 A2989 RMK A01 T00981036  RH  039%=      5-min Rain = 0
KMC4 210307Z 11004KT 10/M04 A2989 RMK A01 T00981035  RH  039%=      5-min Rain = 0
KMC4 210308Z 11005KT 10/M04 A2989 RMK A01 T00981036  RH  039%=      5-min Rain = 0
KMC4 210309Z 11005KT 10/M04 A2989 RMK A01 T00981035  RH  039%=      5-min Rain = 0
KMC4 210310Z 11004KT 10/M04 A2989 RMK A01 T00991035  RH  039%=      5-min Rain = 0
KMC4 210311Z 11004KT 10/M04 A2989 RMK A01 T00991035  RH  039%=      5-min Rain = 0
KMC4 210312Z 11004KT 10/M03 A2989 RMK A01 T00991034  RH  039%=      5-min Rain = 0
KMC4 210313Z 11004KT 10/M04 A2989 RMK A01 T00991035  RH  039%=      5-min Rain = 0
KMC4 210314Z 11004KT 10/M03 A2989 RMK A01 T00991034  RH  039%=      5-min Rain = 0
KMC4 210315Z 11004KT 10/M03 A2989 RMK A01 T00991034  RH  039%=      5-min Rain = 0
KMC4 210316Z 11004KT 10/M03 A2989 RMK A01 T00991034  RH  039%=      5-min Rain = 0
KMC4 210317Z 11004KT 10/M03 A2989 RMK A01 T00981034  RH  039%=      5-min Rain = 0
KMC4 210318Z 11004KT 10/M03 A2989 RMK A01 T00981033  RH  040%=      5-min Rain = 0
KMC4 210319Z 11005KT 10/M03 A2989 RMK A01 T00981033  RH  040%=      5-min Rain = 0
KMC4 210320Z 11004KT 10/M03 A2989 RMK A01 T00981033  RH  040%=      5-min Rain = 0
KMC4 210321Z 11004KT 10/M03 A2989 RMK A01 T00981033  RH  040%=      5-min Rain = 0
KMC4 210322Z 11004KT 10/M03 A2989 RMK A01 T00981033  RH  040%=      5-min Rain = 0
KMC4 210323Z 11004KT 10/M03 A2989 RMK A01 T00981032  RH  040%=      5-min Rain = 0
KMC4 210324Z 11004KT 10/M03 A2989 RMK A01 T00991033  RH  040%=      5-min Rain = 0
KMC4 210325Z 11004KT 10/M03 A2989 RMK A01 T00991032  RH  039%=      5-min Rain = 0
KMC4 210326Z 10005KT 10/M03 A2989 RMK A01 T00991032  RH  040%=      5-min Rain = 0
KMC4 210327Z 11005KT 10/M03 A2989 RMK A01 T00991032  RH  040%=      5-min Rain = 0
KMC4 210328Z 11005KT 10/M03 A2989 RMK A01 T00991032  RH  040%=      5-min Rain = 0
KMC4 210329Z 11005KT 10/M03 A2989 RMK A01 T00991032  RH  040%=      5-min Rain = 0
KMC4 210330Z 11005KT 10/M03 A2989 RMK A01 T00991031  RH  040%=      5-min Rain = 0
KMC4 210331Z 11006KT 10/M03 A2989 RMK A01 T00991031  RH  040%=      5-min Rain = 0
KMC4 210332Z 11006KT 10/M03 A2989 RMK A01 T01001032  RH  040%=      5-min Rain = 0
KMC4 210333Z 11005KT 10/M03 A2989 RMK A01 T01011031  RH  039%=      5-min Rain = 0
KMC4 210334Z 11005KT 10/M03 A2989 RMK A01 T01011032  RH  039%=      5-min Rain = 0
KMC4 210335Z 11005KT 10/M03 A2989 RMK A01 T01011032  RH  039%=      5-min Rain = 0
KMC4 210336Z 12006KT 10/M03 A2989 RMK A01 T01011032  RH  039%=      5-min Rain = 0
KMC4 210337Z 11006KT 10/M03 A2989 RMK A01 T01011031  RH  039%=      5-min Rain = 0
KMC4 210338Z 11006KT 10/M03 A2989 RMK A01 T01011032  RH  039%=      5-min Rain = 0
KMC4 210339Z 11006KT 10/M03 A2989 RMK A01 T01011031  RH  039%=      5-min Rain = 0
KMC4 210340Z 11005KT 10/M03 A2989 RMK A01 T01001031  RH  040%=      5-min Rain = 0
KMC4 210341Z 11006KT 10/M03 A2989 RMK A01 T01001031  RH  040%=      5-min Rain = 0
KMC4 210342Z 11005KT 10/M03 A2989 RMK A01 T01001031  RH  040%=      5-min Rain = 0
KMC4 210343Z 12005KT 10/M03 A2989 RMK A01 T00991031  RH  040%=      5-min Rain = 0
KMC4 210344Z 12005KT 10/M03 A2989 RMK A01 T00991031  RH  040%=      5-min Rain = 0
KMC4 210345Z 12005KT 10/M03 A2989 RMK A01 T00991031  RH  040%=      5-min Rain = 0
KMC4 210346Z 12006KT 10/M03 A2989 RMK A01 T00981031  RH  040%=      5-min Rain = 0
KMC4 210347Z 12006KT 10/M03 A2989 RMK A01 T00981031  RH  040%=      5-min Rain = 0
KMC4 210348Z 12006KT 10/M03 A2989 RMK A01 T00981031  RH  040%=      5-min Rain = 0
KMC4 210349Z 12006KT 10/M03 A2989 RMK A01 T00981031  RH  040%=      5-min Rain = 0
KMC4 210350Z 12006KT 10/M03 A2989 RMK A01 T00991031  RH  040%=      5-min Rain = 0
KMC4 210351Z 12006KT 10/M03 A2989 RMK A01 T00991030  RH  040%=      5-min Rain = 0
KMC4 210352Z 12006KT 10/M03 A2989 RMK A01 T00981030  RH  040%=      5-min Rain = 0
KMC4 210353Z 12007KT 10/M03 A2988 RMK A01 T00991030  RH  040%=      5-min Rain = 0
KMC4 210354Z 12006KT 10/M03 A2988 RMK A01 T01001029  RH  040%=      5-min Rain = 0
KMC4 210355Z 13006KT 10/M03 A2988 RMK A01 T01001029  RH  040%=      5-min Rain = 0
KMC4 210356Z 13007KT 10/M03 A2988 RMK A01 T01001028  RH  040%=      5-min Rain = 0
KMC4 210357Z 13006KT 10/M03 A2989 RMK A01 T01001028  RH  041%=      5-min Rain = 0
KMC4 210358Z 13007KT 10/M03 A2989 RMK A01 T01001027  RH  041%=      5-min Rain = 0
KMC4 210359Z 13007KT 10/M03 A2989 RMK A01 T00991027  RH  041%=      5-min Rain = 0
KMC4 210400Z 13007KT 10/M03 A2989 RMK A01 T00991026  RH  041%=      5-min Rain = 0
KMC4 210401Z 13007KT 10/M03 A2989 RMK A01 T00991026  RH  042%=      5-min Rain = 0
KMC4 210402Z 13007KT 10/M03 A2989 RMK A01 T00991026  RH  042%=      5-min Rain = 0
KMC4 210403Z 13007KT 10/M03 A2989 RMK A01 T00991025  RH  042%=      5-min Rain = 0
KMC4 210404Z 13007KT 10/M02 A2989 RMK A01 T00991024  RH  042%=      5-min Rain = 0
KMC4 210405Z 13007KT 10/M02 A2989 RMK A01 T00991024  RH  042%=      5-min Rain = 0
KMC4 210406Z 13007KT 10/M02 A2989 RMK A01 T00981024  RH  042%=      5-min Rain = 0
KMC4 210407Z 13008KT 10/M02 A2989 RMK A01 T00981023  RH  043%=      5-min Rain = 0
KMC4 210408Z 13007KT 10/M02 A2989 RMK A01 T00991022  RH  043%=      5-min Rain = 0
KMC4 210409Z 13007KT 10/M02 A2989 RMK A01 T00991022  RH  043%=      5-min Rain = 0
KMC4 210410Z 13007KT 10/M02 A2989 RMK A01 T00991022  RH  043%=      5-min Rain = 0
KMC4 210411Z 13006KT 10/M02 A2989 RMK A01 T00991022  RH  043%=      5-min Rain = 0
KMC4 210412Z 13006KT 10/M02 A2989 RMK A01 T01001022  RH  043%=      5-min Rain = 0
KMC4 210413Z 13006KT 10/M02 A2989 RMK A01 T01001022  RH  043%=      5-min Rain = 0
KMC4 210414Z 12006KT 10/M02 A2989 RMK A01 T01001021  RH  043%=      5-min Rain = 0
KMC4 210415Z 12006KT 10/M02 A2989 RMK A01 T01001022  RH  043%=      5-min Rain = 0
KMC4 210416Z 12006KT 10/M02 A2989 RMK A01 T01011021  RH  042%=      5-min Rain = 0
KMC4 210417Z 12006KT 10/M02 A2989 RMK A01 T01021021  RH  042%=      5-min Rain = 0
KMC4 210418Z 12006KT 10/M02 A2989 RMK A01 T01021021  RH  042%=      5-min Rain = 0
KMC4 210419Z 12006KT 10/M02 A2989 RMK A01 T01031021  RH  042%=      5-min Rain = 0
KMC4 210420Z 12006KT 10/M02 A2989 RMK A01 T01021021  RH  042%=      5-min Rain = 0
KMC4 210421Z 12006KT 10/M02 A2989 RMK A01 T01021020  RH  042%=      5-min Rain = 0
KMC4 210422Z 12006KT 10/M02 A2989 RMK A01 T01021020  RH  042%=      5-min Rain = 0
KMC4 210423Z 12005KT 10/M02 A2989 RMK A01 T01021020  RH  042%=      5-min Rain = 0
KMC4 210424Z 12006KT 10/M02 A2989 RMK A01 T01021020  RH  042%=      5-min Rain = 0
KMC4 210425Z 12006KT 10/M02 A2989 RMK A01 T01021020  RH  043%=      5-min Rain = 0
KMC4 210426Z 12005KT 10/M02 A2989 RMK A01 T01011020  RH  043%=      5-min Rain = 0
KMC4 210427Z 12006KT 10/M02 A2989 RMK A01 T01021019  RH  043%=      5-min Rain = 0
KMC4 210428Z 12005KT 10/M02 A2989 RMK A01 T01011019  RH  043%=      5-min Rain = 0
KMC4 210429Z 12006KT 10/M02 A2989 RMK A01 T01011019  RH  043%=      5-min Rain = 0
KMC4 210430Z 12006KT 10/M02 A2989 RMK A01 T01001019  RH  043%=      5-min Rain = 0
KMC4 210431Z 11006KT 10/M02 A2989 RMK A01 T01001019  RH  043%=      5-min Rain = 0
KMC4 210432Z 12006KT 10/M02 A2988 RMK A01 T01011019  RH  043%=      5-min Rain = 0
KMC4 210433Z 12007KT 10/M02 A2988 RMK A01 T01011018  RH  043%=      5-min Rain = 0
KMC4 210434Z 12007KT 10/M02 A2988 RMK A01 T01011018  RH  043%=      5-min Rain = 0
KMC4 210435Z 12007KT 10/M02 A2988 RMK A01 T01021018  RH  043%=      5-min Rain = 0
KMC4 210436Z 12007KT 10/M02 A2988 RMK A01 T01021018  RH  043%=      5-min Rain = 0
KMC4 210437Z 13007KT 10/M02 A2989 RMK A01 T01021018  RH  043%=      5-min Rain = 0
KMC4 210438Z 13006KT 10/M02 A2989 RMK A01 T01021018  RH  043%=      5-min Rain = 0
KMC4 210439Z 13007KT 10/M02 A2989 RMK A01 T01021018  RH  043%=      5-min Rain = 0
KMC4 210440Z 13006KT 10/M02 A2989 RMK A01 T01021017  RH  043%=      5-min Rain = 0
KMC4 210441Z 13007KT 10/M02 A2989 RMK A01 T01021017  RH  043%=      5-min Rain = 0
KMC4 210442Z 13006KT 10/M02 A2989 RMK A01 T01021017  RH  043%=      5-min Rain = 0
KMC4 210443Z 13007KT 10/M02 A2989 RMK A01 T01011017  RH  044%=      5-min Rain = 0
KMC4 210444Z 13007KT 10/M02 A2989 RMK A01 T01011017  RH  044%=      5-min Rain = 0
KMC4 210445Z 13007KT 10/M02 A2989 RMK A01 T01011017  RH  044%=      5-min Rain = 0
KMC4 210446Z 13007KT 10/M02 A2989 RMK A01 T01011017  RH  044%=      5-min Rain = 0
KMC4 210447Z 13007KT 10/M02 A2989 RMK A01 T01011017  RH  044%=      5-min Rain = 0
KMC4 210448Z 13007KT 10/M02 A2989 RMK A01 T01001016  RH  044%=      5-min Rain = 0
KMC4 210449Z 13007KT 10/M02 A2989 RMK A01 T01001016  RH  044%=      5-min Rain = 0
KMC4 210450Z 13008KT 10/M02 A2989 RMK A01 T01001015  RH  044%=      5-min Rain = 0
KMC4 210451Z 13008KT 10/M02 A2989 RMK A01 T01001016  RH  044%=      5-min Rain = 0
KMC4 210452Z 13007KT 10/M02 A2989 RMK A01 T01001015  RH  044%=      5-min Rain = 0
KMC4 210453Z 13007KT 10/M02 A2989 RMK A01 T01001015  RH  044%=      5-min Rain = 0
KMC4 210454Z 13007KT 10/M02 A2989 RMK A01 T01001015  RH  044%=      5-min Rain = 0
KMC4 210455Z 13007KT 10/M02 A2989 RMK A01 T01011015  RH  045%=      5-min Rain = 0
KMC4 210456Z 13007KT 10/M02 A2989 RMK A01 T01011015  RH  045%=      5-min Rain = 0
KMC4 210457Z 13007KT 10/M01 A2988 RMK A01 T01011014  RH  045%=      5-min Rain = 0
KMC4 210458Z 13007KT 10/M01 A2988 RMK A01 T01011014  RH  045%=      5-min Rain = 0
KMC4 210459Z 13006KT 10/M01 A2988 RMK A01 T01011014  RH  045%=      5-min Rain = 0
KMC4 210500Z 13006KT 10/M01 A2989 RMK A01 T01011014  RH  045%=      5-min Rain = 0
KMC4 210501Z 13006KT 10/M01 A2989 RMK A01 T01001014  RH  045%=      5-min Rain = 0
KMC4 210502Z 13007KT 10/M01 A2989 RMK A01 T01001014  RH  045%=      5-min Rain = 0
KMC4 210503Z 13006KT 10/M01 A2989 RMK A01 T01001014  RH  045%=      5-min Rain = 0
KMC4 210504Z 13006KT 10/M01 A2989 RMK A01 T01001014  RH  045%=      5-min Rain = 0
KMC4 210505Z 13006KT 10/M01 A2989 RMK A01 T01011014  RH  045%=      5-min Rain = 0
KMC4 210506Z 14006KT 10/M01 A2989 RMK A01 T01001014  RH  045%=      5-min Rain = 0
KMC4 210507Z 14006KT 10/M01 A2989 RMK A01 T01001014  RH  045%=      5-min Rain = 0
KMC4 210508Z 14007KT 10/M01 A2989 RMK A01 T01011014  RH  045%=      5-min Rain = 0
KMC4 210509Z 14007KT 10/M01 A2989 RMK A01 T01001014  RH  045%=      5-min Rain = 0
KMC4 210510Z 14007KT 10/M01 A2989 RMK A01 T01011014  RH  045%=      5-min Rain = 0
KMC4 210511Z 14007KT 10/M01 A2989 RMK A01 T01001014  RH  045%=      5-min Rain = 0
KMC4 210512Z 14008KT 10/M01 A2989 RMK A01 T01001013  RH  045%=      5-min Rain = 0
KMC4 210513Z 13007KT 10/M01 A2989 RMK A01 T01001014  RH  045%=      5-min Rain = 0
KMC4 210514Z 14008KT 10/M01 A2989 RMK A01 T01001014  RH  045%=      5-min Rain = 0
KMC4 210515Z 13008KT 10/M01 A2989 RMK A01 T01011013  RH  045%=      5-min Rain = 0
KMC4 210516Z 13008KT 10/M01 A2989 RMK A01 T01011014  RH  045%=      5-min Rain = 0
KMC4 210517Z 13007KT 10/M01 A2989 RMK A01 T01021014  RH  045%=      5-min Rain = 0
KMC4 210518Z 13007KT 10/M01 A2989 RMK A01 T01021013  RH  045%=      5-min Rain = 0
KMC4 210519Z 13007KT 10/M01 A2989 RMK A01 T01021013  RH  045%=      5-min Rain = 0
KMC4 210520Z 13007KT 10/M01 A2989 RMK A01 T01011014  RH  045%=      5-min Rain = 0
KMC4 210521Z 13006KT 10/M01 A2989 RMK A01 T01021013  RH  045%=      5-min Rain = 0
KMC4 210522Z 13007KT 10/M01 A2989 RMK A01 T01011014  RH  045%=      5-min Rain = 0
KMC4 210523Z 13007KT 10/M01 A2989 RMK A01 T01011014  RH  045%=      5-min Rain = 0
KMC4 210524Z 13007KT 10/M01 A2989 RMK A01 T01021013  RH  045%=      5-min Rain = 0
KMC4 210525Z 13008KT 10/M01 A2989 RMK A01 T01011014  RH  045%=      5-min Rain = 0
KMC4 210526Z 12007KT 10/M01 A2989 RMK A01 T01021014  RH  044%=      5-min Rain = 0
KMC4 210527Z 12007KT 10/M01 A2989 RMK A01 T01021014  RH  044%=      5-min Rain = 0
KMC4 210528Z 12008KT 10/M02 A2989 RMK A01 T01021015  RH  044%=      5-min Rain = 0
KMC4 210529Z 12009KT 10/M02 A2989 RMK A01 T01031015  RH  044%=      5-min Rain = 0
KMC4 210530Z 12008KT 10/M02 A2989 RMK A01 T01031015  RH  044%=      5-min Rain = 0
KMC4 210531Z 12007KT 10/M02 A2989 RMK A01 T01041015  RH  044%=      5-min Rain = 0
KMC4 210532Z 12008KT 10/M02 A2989 RMK A01 T01031015  RH  044%=      5-min Rain = 0
KMC4 210533Z 12007KT 10/M02 A2989 RMK A01 T01031015  RH  044%=      5-min Rain = 0
KMC4 210534Z 12008KT 10/M02 A2989 RMK A01 T01031015  RH  044%=      5-min Rain = 0
KMC4 210535Z 12008KT 10/M02 A2989 RMK A01 T01031015  RH  044%=      5-min Rain = 0
KMC4 210536Z 12007KT 10/M02 A2989 RMK A01 T01031015  RH  044%=      5-min Rain = 0
KMC4 210537Z 13007KT 10/M02 A2989 RMK A01 T01031015  RH  044%=      5-min Rain = 0
KMC4 210538Z 13007KT 10/M02 A2989 RMK A01 T01031015  RH  044%=      5-min Rain = 0
KMC4 210539Z 12008KT 10/M02 A2989 RMK A01 T01021015  RH  044%=      5-min Rain = 0
KMC4 210540Z 13009KT 10/M02 A2989 RMK A01 T01021015  RH  044%=      5-min Rain = 0
KMC4 210541Z 13009KT 10/M02 A2989 RMK A01 T01021015  RH  044%=      5-min Rain = 0
KMC4 210542Z 12009KT 10/M02 A2989 RMK A01 T01011015  RH  044%=      5-min Rain = 0
KMC4 210543Z 13010KT 10/M02 A2989 RMK A01 T01011015  RH  044%=      5-min Rain = 0
KMC4 210544Z 13009KT 10/M01 A2989 RMK A01 T01011014  RH  044%=      5-min Rain = 0
KMC4 210545Z 13009KT 10/M02 A2988 RMK A01 T01011015  RH  044%=      5-min Rain = 0
KMC4 210546Z 13011KT 10/M02 A2988 RMK A01 T01011015  RH  044%=      5-min Rain = 0
KMC4 210547Z 13010KT 10/M02 A2988 RMK A01 T01001015  RH  044%=      5-min Rain = 0
KMC4 210548Z 13012KT 10/M02 A2988 RMK A01 T01011015  RH  044%=      5-min Rain = 0
KMC4 210549Z 13012KT 10/M02 A2988 RMK A01 T01011015  RH  044%=      5-min Rain = 0
KMC4 210550Z 13011KT 10/M02 A2988 RMK A01 T01021015  RH  044%=      5-min Rain = 0
KMC4 210551Z 14011KT 10/M02 A2988 RMK A01 T01021015  RH  044%=      5-min Rain = 0
KMC4 210552Z 14012KT 10/M02 A2988 RMK A01 T01021015  RH  044%=      5-min Rain = 0
KMC4 210553Z 14011KT 10/M02 A2988 RMK A01 T01021015  RH  044%=      5-min Rain = 0
KMC4 210554Z 13013KT 10/M02 A2988 RMK A01 T01031015  RH  044%=      5-min Rain = 0
KMC4 210555Z 14011KT 10/M02 A2988 RMK A01 T01041015  RH  043%=      5-min Rain = 0
KMC4 210556Z 14011KT 11/M02 A2988 RMK A01 T01051015  RH  043%=      5-min Rain = 0
KMC4 210557Z 14011KT 10/M02 A2988 RMK A01 T01041015  RH  043%=      5-min Rain = 0
KMC4 210558Z 13010KT 10/M02 A2988 RMK A01 T01041015  RH  043%=      5-min Rain = 0
KMC4 210559Z 14009KT 10/M02 A2988 RMK A01 T01041015  RH  043%=      5-min Rain = 0

Page generated in 0.1313 seconds.